<?xml version="1.0" encoding="UTF-8" standalone="no" ?>
<gpx xmlns="http://www.topografix.com/GPX/1/1" xmlns:xsi="http://www.w3.org/2001/XMLSchema-instance" xsi:schemaLocation="http://www.topografix.com/GPX/1/1 http://www.topografix.com/GPX/1/1/gpx.xsd" version="1.1" creator="VisuGPX - https://www.visugpx.com">
  <metadata>
    <name>boucle beauregard et bassac 12km</name>
  </metadata>
  <trk>
    <name><![CDATA[randogps24-430]]></name>
    <trkseg>
      <trkpt lat="44.98769" lon="0.64029">
        <ele>189.52</ele>
        <time>2018-03-16T13:14:39Z</time>
      </trkpt>
      <trkpt lat="44.98769" lon="0.64029">
        <ele>189.52</ele>
        <time>2018-03-16T13:14:40Z</time>
      </trkpt>
      <trkpt lat="44.9877" lon="0.64031">
        <ele>190</ele>
        <time>2018-03-16T13:14:58Z</time>
      </trkpt>
      <trkpt lat="44.9877" lon="0.6404">
        <ele>190.48</ele>
        <time>2018-03-16T13:15:08Z</time>
      </trkpt>
      <trkpt lat="44.98761" lon="0.64063">
        <ele>191.44</ele>
        <time>2018-03-16T13:15:23Z</time>
      </trkpt>
      <trkpt lat="44.98756" lon="0.64088">
        <ele>192.4</ele>
        <time>2018-03-16T13:15:38Z</time>
      </trkpt>
      <trkpt lat="44.98752" lon="0.64118">
        <ele>193.84</ele>
        <time>2018-03-16T13:15:54Z</time>
      </trkpt>
      <trkpt lat="44.98745" lon="0.64151">
        <ele>194.32</ele>
        <time>2018-03-16T13:16:12Z</time>
      </trkpt>
      <trkpt lat="44.98744" lon="0.64171">
        <ele>194.32</ele>
        <time>2018-03-16T13:16:22Z</time>
      </trkpt>
      <trkpt lat="44.98747" lon="0.64199">
        <ele>194.32</ele>
        <time>2018-03-16T13:16:37Z</time>
      </trkpt>
      <trkpt lat="44.98752" lon="0.64225">
        <ele>194.32</ele>
        <time>2018-03-16T13:16:50Z</time>
      </trkpt>
      <trkpt lat="44.98756" lon="0.64251">
        <ele>192.88</ele>
        <time>2018-03-16T13:17:03Z</time>
      </trkpt>
      <trkpt lat="44.98756" lon="0.64253">
        <ele>192.88</ele>
        <time>2018-03-16T13:17:04Z</time>
      </trkpt>
      <trkpt lat="44.98749" lon="0.64269">
        <ele>191.44</ele>
        <time>2018-03-16T13:17:15Z</time>
      </trkpt>
      <trkpt lat="44.98732" lon="0.64276">
        <ele>188.56</ele>
        <time>2018-03-16T13:17:28Z</time>
      </trkpt>
      <trkpt lat="44.98714" lon="0.64284">
        <ele>185.67</ele>
        <time>2018-03-16T13:17:43Z</time>
      </trkpt>
      <trkpt lat="44.98696" lon="0.64289">
        <ele>182.79</ele>
        <time>2018-03-16T13:17:57Z</time>
      </trkpt>
      <trkpt lat="44.98675" lon="0.64296">
        <ele>179.42</ele>
        <time>2018-03-16T13:18:15Z</time>
      </trkpt>
      <trkpt lat="44.98664" lon="0.64299">
        <ele>178.46</ele>
        <time>2018-03-16T13:18:23Z</time>
      </trkpt>
      <trkpt lat="44.98642" lon="0.6431">
        <ele>176.06</ele>
        <time>2018-03-16T13:18:37Z</time>
      </trkpt>
      <trkpt lat="44.98624" lon="0.64323">
        <ele>174.14</ele>
        <time>2018-03-16T13:18:53Z</time>
      </trkpt>
      <trkpt lat="44.98612" lon="0.64336">
        <ele>172.69</ele>
        <time>2018-03-16T13:19:04Z</time>
      </trkpt>
      <trkpt lat="44.98599" lon="0.64342">
        <ele>170.29</ele>
        <time>2018-03-16T13:19:21Z</time>
      </trkpt>
      <trkpt lat="44.986" lon="0.6434">
        <ele>170.29</ele>
        <time>2018-03-16T13:19:27Z</time>
      </trkpt>
      <trkpt lat="44.98603" lon="0.64343">
        <ele>171.73</ele>
        <time>2018-03-16T13:19:31Z</time>
      </trkpt>
      <trkpt lat="44.98608" lon="0.64342">
        <ele>171.73</ele>
        <time>2018-03-16T13:19:34Z</time>
      </trkpt>
      <trkpt lat="44.98623" lon="0.64321">
        <ele>174.62</ele>
        <time>2018-03-16T13:19:52Z</time>
      </trkpt>
      <trkpt lat="44.98625" lon="0.64321">
        <ele>175.1</ele>
        <time>2018-03-16T13:19:53Z</time>
      </trkpt>
      <trkpt lat="44.98629" lon="0.64325">
        <ele>175.1</ele>
        <time>2018-03-16T13:19:57Z</time>
      </trkpt>
      <trkpt lat="44.98631" lon="0.64345">
        <ele>175.1</ele>
        <time>2018-03-16T13:20:11Z</time>
      </trkpt>
      <trkpt lat="44.98633" lon="0.64384">
        <ele>175.58</ele>
        <time>2018-03-16T13:20:30Z</time>
      </trkpt>
      <trkpt lat="44.98632" lon="0.64422">
        <ele>176.06</ele>
        <time>2018-03-16T13:20:49Z</time>
      </trkpt>
      <trkpt lat="44.98631" lon="0.64459">
        <ele>176.54</ele>
        <time>2018-03-16T13:21:09Z</time>
      </trkpt>
      <trkpt lat="44.9863" lon="0.64495">
        <ele>176.06</ele>
        <time>2018-03-16T13:21:28Z</time>
      </trkpt>
      <trkpt lat="44.98632" lon="0.64535">
        <ele>176.06</ele>
        <time>2018-03-16T13:21:48Z</time>
      </trkpt>
      <trkpt lat="44.98634" lon="0.64578">
        <ele>174.62</ele>
        <time>2018-03-16T13:22:08Z</time>
      </trkpt>
      <trkpt lat="44.98637" lon="0.64618">
        <ele>173.66</ele>
        <time>2018-03-16T13:22:27Z</time>
      </trkpt>
      <trkpt lat="44.9864" lon="0.64661">
        <ele>173.17</ele>
        <time>2018-03-16T13:22:46Z</time>
      </trkpt>
      <trkpt lat="44.98642" lon="0.64699">
        <ele>172.21</ele>
        <time>2018-03-16T13:23:06Z</time>
      </trkpt>
      <trkpt lat="44.98645" lon="0.64737">
        <ele>171.73</ele>
        <time>2018-03-16T13:23:25Z</time>
      </trkpt>
      <trkpt lat="44.98648" lon="0.64776">
        <ele>171.25</ele>
        <time>2018-03-16T13:23:42Z</time>
      </trkpt>
      <trkpt lat="44.9865" lon="0.64814">
        <ele>171.25</ele>
        <time>2018-03-16T13:24:00Z</time>
      </trkpt>
      <trkpt lat="44.98653" lon="0.64846">
        <ele>170.77</ele>
        <time>2018-03-16T13:24:16Z</time>
      </trkpt>
      <trkpt lat="44.98653" lon="0.64848">
        <ele>170.77</ele>
        <time>2018-03-16T13:24:17Z</time>
      </trkpt>
      <trkpt lat="44.98639" lon="0.64864">
        <ele>166.93</ele>
        <time>2018-03-16T13:24:33Z</time>
      </trkpt>
      <trkpt lat="44.98638" lon="0.64868">
        <ele>166.45</ele>
        <time>2018-03-16T13:24:52Z</time>
      </trkpt>
      <trkpt lat="44.98641" lon="0.64859">
        <ele>166.45</ele>
        <time>2018-03-16T13:25:16Z</time>
      </trkpt>
      <trkpt lat="44.98654" lon="0.6485">
        <ele>169.81</ele>
        <time>2018-03-16T13:25:29Z</time>
      </trkpt>
      <trkpt lat="44.98655" lon="0.6485">
        <ele>169.81</ele>
        <time>2018-03-16T13:25:30Z</time>
      </trkpt>
      <trkpt lat="44.98662" lon="0.64865">
        <ele>170.29</ele>
        <time>2018-03-16T13:25:42Z</time>
      </trkpt>
      <trkpt lat="44.98668" lon="0.64907">
        <ele>170.29</ele>
        <time>2018-03-16T13:26:02Z</time>
      </trkpt>
      <trkpt lat="44.9867" lon="0.64933">
        <ele>170.29</ele>
        <time>2018-03-16T13:26:16Z</time>
      </trkpt>
      <trkpt lat="44.98669" lon="0.64938">
        <ele>170.29</ele>
        <time>2018-03-16T13:26:18Z</time>
      </trkpt>
      <trkpt lat="44.98669" lon="0.64943">
        <ele>170.29</ele>
        <time>2018-03-16T13:26:21Z</time>
      </trkpt>
      <trkpt lat="44.98664" lon="0.64967">
        <ele>169.81</ele>
        <time>2018-03-16T13:26:36Z</time>
      </trkpt>
      <trkpt lat="44.98649" lon="0.65004">
        <ele>169.81</ele>
        <time>2018-03-16T13:26:55Z</time>
      </trkpt>
      <trkpt lat="44.98635" lon="0.65031">
        <ele>169.81</ele>
        <time>2018-03-16T13:27:12Z</time>
      </trkpt>
      <trkpt lat="44.9862" lon="0.65067">
        <ele>168.37</ele>
        <time>2018-03-16T13:27:31Z</time>
      </trkpt>
      <trkpt lat="44.98603" lon="0.65096">
        <ele>168.37</ele>
        <time>2018-03-16T13:27:50Z</time>
      </trkpt>
      <trkpt lat="44.98587" lon="0.65127">
        <ele>168.37</ele>
        <time>2018-03-16T13:28:09Z</time>
      </trkpt>
      <trkpt lat="44.98575" lon="0.65156">
        <ele>168.37</ele>
        <time>2018-03-16T13:28:26Z</time>
      </trkpt>
      <trkpt lat="44.98566" lon="0.65172">
        <ele>169.33</ele>
        <time>2018-03-16T13:28:42Z</time>
      </trkpt>
      <trkpt lat="44.98564" lon="0.65175">
        <ele>167.89</ele>
        <time>2018-03-16T13:28:45Z</time>
      </trkpt>
      <trkpt lat="44.98555" lon="0.65181">
        <ele>167.41</ele>
        <time>2018-03-16T13:29:01Z</time>
      </trkpt>
      <trkpt lat="44.98552" lon="0.65191">
        <ele>165.96</ele>
        <time>2018-03-16T13:29:18Z</time>
      </trkpt>
      <trkpt lat="44.98552" lon="0.65187">
        <ele>165.96</ele>
        <time>2018-03-16T13:29:43Z</time>
      </trkpt>
      <trkpt lat="44.98555" lon="0.65183">
        <ele>167.41</ele>
        <time>2018-03-16T13:30:04Z</time>
      </trkpt>
      <trkpt lat="44.98545" lon="0.65168">
        <ele>166.93</ele>
        <time>2018-03-16T13:30:19Z</time>
      </trkpt>
      <trkpt lat="44.9854" lon="0.65167">
        <ele>166.93</ele>
        <time>2018-03-16T13:30:22Z</time>
      </trkpt>
      <trkpt lat="44.98537" lon="0.65163">
        <ele>166.93</ele>
        <time>2018-03-16T13:30:37Z</time>
      </trkpt>
      <trkpt lat="44.98538" lon="0.65163">
        <ele>166.93</ele>
        <time>2018-03-16T13:31:00Z</time>
      </trkpt>
      <trkpt lat="44.98537" lon="0.65161">
        <ele>166.93</ele>
        <time>2018-03-16T13:31:33Z</time>
      </trkpt>
      <trkpt lat="44.98534" lon="0.65159">
        <ele>166.45</ele>
        <time>2018-03-16T13:32:00Z</time>
      </trkpt>
      <trkpt lat="44.98538" lon="0.65149">
        <ele>166.45</ele>
        <time>2018-03-16T13:32:17Z</time>
      </trkpt>
      <trkpt lat="44.98545" lon="0.65136">
        <ele>166.45</ele>
        <time>2018-03-16T13:32:31Z</time>
      </trkpt>
      <trkpt lat="44.98547" lon="0.65131">
        <ele>166.45</ele>
        <time>2018-03-16T13:32:34Z</time>
      </trkpt>
      <trkpt lat="44.98552" lon="0.65112">
        <ele>166.45</ele>
        <time>2018-03-16T13:32:48Z</time>
      </trkpt>
      <trkpt lat="44.98554" lon="0.65099">
        <ele>166.93</ele>
        <time>2018-03-16T13:33:07Z</time>
      </trkpt>
      <trkpt lat="44.98552" lon="0.65079">
        <ele>167.89</ele>
        <time>2018-03-16T13:33:22Z</time>
      </trkpt>
      <trkpt lat="44.98556" lon="0.65055">
        <ele>167.89</ele>
        <time>2018-03-16T13:33:37Z</time>
      </trkpt>
      <trkpt lat="44.98562" lon="0.65041">
        <ele>167.89</ele>
        <time>2018-03-16T13:33:51Z</time>
      </trkpt>
      <trkpt lat="44.98578" lon="0.65017">
        <ele>167.89</ele>
        <time>2018-03-16T13:34:09Z</time>
      </trkpt>
      <trkpt lat="44.98589" lon="0.64994">
        <ele>166.45</ele>
        <time>2018-03-16T13:34:25Z</time>
      </trkpt>
      <trkpt lat="44.98592" lon="0.64978">
        <ele>166.45</ele>
        <time>2018-03-16T13:34:36Z</time>
      </trkpt>
      <trkpt lat="44.98594" lon="0.64964">
        <ele>166.45</ele>
        <time>2018-03-16T13:34:44Z</time>
      </trkpt>
      <trkpt lat="44.98595" lon="0.64938">
        <ele>166.45</ele>
        <time>2018-03-16T13:34:59Z</time>
      </trkpt>
      <trkpt lat="44.98589" lon="0.64917">
        <ele>165.96</ele>
        <time>2018-03-16T13:35:16Z</time>
      </trkpt>
      <trkpt lat="44.98588" lon="0.64912">
        <ele>165.96</ele>
        <time>2018-03-16T13:35:23Z</time>
      </trkpt>
      <trkpt lat="44.98589" lon="0.64911">
        <ele>165.96</ele>
        <time>2018-03-16T13:35:39Z</time>
      </trkpt>
      <trkpt lat="44.98585" lon="0.64916">
        <ele>165.96</ele>
        <time>2018-03-16T13:35:53Z</time>
      </trkpt>
      <trkpt lat="44.9858" lon="0.64924">
        <ele>167.41</ele>
        <time>2018-03-16T13:35:59Z</time>
      </trkpt>
      <trkpt lat="44.98561" lon="0.64935">
        <ele>169.81</ele>
        <time>2018-03-16T13:36:16Z</time>
      </trkpt>
      <trkpt lat="44.98537" lon="0.64945">
        <ele>171.73</ele>
        <time>2018-03-16T13:36:34Z</time>
      </trkpt>
      <trkpt lat="44.98516" lon="0.64951">
        <ele>173.17</ele>
        <time>2018-03-16T13:36:50Z</time>
      </trkpt>
      <trkpt lat="44.98495" lon="0.64953">
        <ele>174.62</ele>
        <time>2018-03-16T13:37:07Z</time>
      </trkpt>
      <trkpt lat="44.98472" lon="0.64947">
        <ele>176.06</ele>
        <time>2018-03-16T13:37:23Z</time>
      </trkpt>
      <trkpt lat="44.98452" lon="0.6494">
        <ele>177.5</ele>
        <time>2018-03-16T13:37:39Z</time>
      </trkpt>
      <trkpt lat="44.98428" lon="0.64935">
        <ele>179.9</ele>
        <time>2018-03-16T13:37:59Z</time>
      </trkpt>
      <trkpt lat="44.98406" lon="0.64928">
        <ele>181.83</ele>
        <time>2018-03-16T13:38:16Z</time>
      </trkpt>
      <trkpt lat="44.98386" lon="0.64923">
        <ele>183.75</ele>
        <time>2018-03-16T13:38:33Z</time>
      </trkpt>
      <trkpt lat="44.98366" lon="0.64921">
        <ele>184.71</ele>
        <time>2018-03-16T13:38:51Z</time>
      </trkpt>
      <trkpt lat="44.9835" lon="0.64915">
        <ele>186.15</ele>
        <time>2018-03-16T13:39:05Z</time>
      </trkpt>
      <trkpt lat="44.98329" lon="0.6491">
        <ele>186.63</ele>
        <time>2018-03-16T13:39:19Z</time>
      </trkpt>
      <trkpt lat="44.98302" lon="0.64903">
        <ele>188.08</ele>
        <time>2018-03-16T13:39:39Z</time>
      </trkpt>
      <trkpt lat="44.98277" lon="0.64896">
        <ele>189.04</ele>
        <time>2018-03-16T13:39:59Z</time>
      </trkpt>
      <trkpt lat="44.98255" lon="0.6489">
        <ele>189.52</ele>
        <time>2018-03-16T13:40:17Z</time>
      </trkpt>
      <trkpt lat="44.9823" lon="0.64887">
        <ele>191.44</ele>
        <time>2018-03-16T13:40:34Z</time>
      </trkpt>
      <trkpt lat="44.98215" lon="0.64882">
        <ele>192.4</ele>
        <time>2018-03-16T13:40:45Z</time>
      </trkpt>
      <trkpt lat="44.98195" lon="0.64877">
        <ele>192.88</ele>
        <time>2018-03-16T13:41:02Z</time>
      </trkpt>
      <trkpt lat="44.98176" lon="0.64873">
        <ele>194.32</ele>
        <time>2018-03-16T13:41:17Z</time>
      </trkpt>
      <trkpt lat="44.98157" lon="0.64867">
        <ele>195.28</ele>
        <time>2018-03-16T13:41:32Z</time>
      </trkpt>
      <trkpt lat="44.98137" lon="0.64863">
        <ele>195.28</ele>
        <time>2018-03-16T13:41:48Z</time>
      </trkpt>
      <trkpt lat="44.98131" lon="0.64856">
        <ele>195.77</ele>
        <time>2018-03-16T13:41:55Z</time>
      </trkpt>
      <trkpt lat="44.98127" lon="0.64831">
        <ele>196.73</ele>
        <time>2018-03-16T13:42:10Z</time>
      </trkpt>
      <trkpt lat="44.98127" lon="0.64805">
        <ele>196.73</ele>
        <time>2018-03-16T13:42:28Z</time>
      </trkpt>
      <trkpt lat="44.98128" lon="0.64783">
        <ele>194.8</ele>
        <time>2018-03-16T13:42:46Z</time>
      </trkpt>
      <trkpt lat="44.98136" lon="0.64779">
        <ele>195.28</ele>
        <time>2018-03-16T13:43:08Z</time>
      </trkpt>
      <trkpt lat="44.98129" lon="0.64779">
        <ele>191.44</ele>
        <time>2018-03-16T13:43:36Z</time>
      </trkpt>
      <trkpt lat="44.98129" lon="0.64779">
        <ele>193.84</ele>
        <time>2018-03-16T13:43:37Z</time>
      </trkpt>
      <trkpt lat="44.9814" lon="0.64754">
        <ele>195.28</ele>
        <time>2018-03-16T13:44:45Z</time>
      </trkpt>
      <trkpt lat="44.98129" lon="0.64773">
        <ele>195.28</ele>
        <time>2018-03-16T13:45:16Z</time>
      </trkpt>
      <trkpt lat="44.9813" lon="0.64778">
        <ele>195.28</ele>
        <time>2018-03-16T13:45:45Z</time>
      </trkpt>
      <trkpt lat="44.98131" lon="0.64774">
        <ele>195.28</ele>
        <time>2018-03-16T13:46:12Z</time>
      </trkpt>
      <trkpt lat="44.98122" lon="0.64784">
        <ele>195.77</ele>
        <time>2018-03-16T13:46:32Z</time>
      </trkpt>
      <trkpt lat="44.98109" lon="0.64762">
        <ele>195.77</ele>
        <time>2018-03-16T13:46:48Z</time>
      </trkpt>
      <trkpt lat="44.98105" lon="0.64738">
        <ele>193.84</ele>
        <time>2018-03-16T13:47:07Z</time>
      </trkpt>
      <trkpt lat="44.98109" lon="0.64712">
        <ele>192.4</ele>
        <time>2018-03-16T13:47:27Z</time>
      </trkpt>
      <trkpt lat="44.98112" lon="0.64686">
        <ele>190</ele>
        <time>2018-03-16T13:47:47Z</time>
      </trkpt>
      <trkpt lat="44.98116" lon="0.64657">
        <ele>187.59</ele>
        <time>2018-03-16T13:48:07Z</time>
      </trkpt>
      <trkpt lat="44.98114" lon="0.64629">
        <ele>185.19</ele>
        <time>2018-03-16T13:48:28Z</time>
      </trkpt>
      <trkpt lat="44.98097" lon="0.64597">
        <ele>184.71</ele>
        <time>2018-03-16T13:48:49Z</time>
      </trkpt>
      <trkpt lat="44.98083" lon="0.64566">
        <ele>183.27</ele>
        <time>2018-03-16T13:49:09Z</time>
      </trkpt>
      <trkpt lat="44.98071" lon="0.64536">
        <ele>182.79</ele>
        <time>2018-03-16T13:49:29Z</time>
      </trkpt>
      <trkpt lat="44.98054" lon="0.645">
        <ele>181.83</ele>
        <time>2018-03-16T13:49:51Z</time>
      </trkpt>
      <trkpt lat="44.98044" lon="0.64469">
        <ele>181.83</ele>
        <time>2018-03-16T13:50:11Z</time>
      </trkpt>
      <trkpt lat="44.98041" lon="0.64452">
        <ele>181.83</ele>
        <time>2018-03-16T13:50:20Z</time>
      </trkpt>
      <trkpt lat="44.98042" lon="0.64417">
        <ele>183.75</ele>
        <time>2018-03-16T13:50:39Z</time>
      </trkpt>
      <trkpt lat="44.98043" lon="0.64408">
        <ele>183.75</ele>
        <time>2018-03-16T13:50:44Z</time>
      </trkpt>
      <trkpt lat="44.98044" lon="0.64378">
        <ele>184.23</ele>
        <time>2018-03-16T13:51:00Z</time>
      </trkpt>
      <trkpt lat="44.98042" lon="0.64344">
        <ele>184.23</ele>
        <time>2018-03-16T13:51:18Z</time>
      </trkpt>
      <trkpt lat="44.98046" lon="0.64315">
        <ele>182.31</ele>
        <time>2018-03-16T13:51:38Z</time>
      </trkpt>
      <trkpt lat="44.98049" lon="0.64307">
        <ele>182.31</ele>
        <time>2018-03-16T13:52:03Z</time>
      </trkpt>
      <trkpt lat="44.9805" lon="0.64287">
        <ele>181.83</ele>
        <time>2018-03-16T13:52:32Z</time>
      </trkpt>
      <trkpt lat="44.98045" lon="0.64258">
        <ele>180.87</ele>
        <time>2018-03-16T13:52:54Z</time>
      </trkpt>
      <trkpt lat="44.98037" lon="0.64236">
        <ele>180.38</ele>
        <time>2018-03-16T13:53:13Z</time>
      </trkpt>
      <trkpt lat="44.98035" lon="0.64229">
        <ele>181.35</ele>
        <time>2018-03-16T13:53:22Z</time>
      </trkpt>
      <trkpt lat="44.98032" lon="0.642">
        <ele>181.35</ele>
        <time>2018-03-16T13:53:40Z</time>
      </trkpt>
      <trkpt lat="44.98028" lon="0.64163">
        <ele>181.83</ele>
        <time>2018-03-16T13:54:01Z</time>
      </trkpt>
      <trkpt lat="44.98027" lon="0.64129">
        <ele>181.83</ele>
        <time>2018-03-16T13:54:22Z</time>
      </trkpt>
      <trkpt lat="44.98017" lon="0.64094">
        <ele>183.75</ele>
        <time>2018-03-16T13:54:44Z</time>
      </trkpt>
      <trkpt lat="44.9801" lon="0.64073">
        <ele>186.15</ele>
        <time>2018-03-16T13:55:03Z</time>
      </trkpt>
      <trkpt lat="44.98005" lon="0.64049">
        <ele>187.11</ele>
        <time>2018-03-16T13:55:22Z</time>
      </trkpt>
      <trkpt lat="44.98001" lon="0.6402">
        <ele>187.11</ele>
        <time>2018-03-16T13:55:40Z</time>
      </trkpt>
      <trkpt lat="44.97998" lon="0.64012">
        <ele>187.11</ele>
        <time>2018-03-16T13:55:59Z</time>
      </trkpt>
      <trkpt lat="44.97995" lon="0.64005">
        <ele>186.63</ele>
        <time>2018-03-16T13:56:28Z</time>
      </trkpt>
      <trkpt lat="44.97996" lon="0.64008">
        <ele>186.63</ele>
        <time>2018-03-16T13:56:50Z</time>
      </trkpt>
      <trkpt lat="44.97993" lon="0.63989">
        <ele>186.63</ele>
        <time>2018-03-16T13:57:15Z</time>
      </trkpt>
      <trkpt lat="44.97988" lon="0.6396">
        <ele>187.11</ele>
        <time>2018-03-16T13:57:32Z</time>
      </trkpt>
      <trkpt lat="44.97988" lon="0.63957">
        <ele>187.11</ele>
        <time>2018-03-16T13:57:34Z</time>
      </trkpt>
      <trkpt lat="44.97982" lon="0.63916">
        <ele>187.59</ele>
        <time>2018-03-16T13:57:57Z</time>
      </trkpt>
      <trkpt lat="44.97977" lon="0.63885">
        <ele>186.63</ele>
        <time>2018-03-16T13:58:15Z</time>
      </trkpt>
      <trkpt lat="44.97967" lon="0.63855">
        <ele>186.15</ele>
        <time>2018-03-16T13:58:32Z</time>
      </trkpt>
      <trkpt lat="44.9796" lon="0.63823">
        <ele>185.19</ele>
        <time>2018-03-16T13:58:50Z</time>
      </trkpt>
      <trkpt lat="44.97962" lon="0.63794">
        <ele>182.31</ele>
        <time>2018-03-16T13:59:06Z</time>
      </trkpt>
      <trkpt lat="44.97964" lon="0.63763">
        <ele>180.38</ele>
        <time>2018-03-16T13:59:23Z</time>
      </trkpt>
      <trkpt lat="44.97973" lon="0.63737">
        <ele>178.46</ele>
        <time>2018-03-16T13:59:41Z</time>
      </trkpt>
      <trkpt lat="44.97988" lon="0.63707">
        <ele>176.06</ele>
        <time>2018-03-16T13:59:55Z</time>
      </trkpt>
      <trkpt lat="44.98002" lon="0.63675">
        <ele>174.62</ele>
        <time>2018-03-16T14:00:13Z</time>
      </trkpt>
      <trkpt lat="44.98016" lon="0.63646">
        <ele>174.62</ele>
        <time>2018-03-16T14:00:28Z</time>
      </trkpt>
      <trkpt lat="44.98031" lon="0.63622">
        <ele>174.62</ele>
        <time>2018-03-16T14:00:47Z</time>
      </trkpt>
      <trkpt lat="44.98034" lon="0.6359">
        <ele>174.62</ele>
        <time>2018-03-16T14:01:02Z</time>
      </trkpt>
      <trkpt lat="44.98044" lon="0.63551">
        <ele>173.17</ele>
        <time>2018-03-16T14:01:20Z</time>
      </trkpt>
      <trkpt lat="44.98052" lon="0.63518">
        <ele>172.21</ele>
        <time>2018-03-16T14:01:38Z</time>
      </trkpt>
      <trkpt lat="44.98054" lon="0.63486">
        <ele>172.21</ele>
        <time>2018-03-16T14:01:54Z</time>
      </trkpt>
      <trkpt lat="44.98057" lon="0.63451">
        <ele>174.14</ele>
        <time>2018-03-16T14:02:12Z</time>
      </trkpt>
      <trkpt lat="44.98058" lon="0.63416">
        <ele>176.54</ele>
        <time>2018-03-16T14:02:29Z</time>
      </trkpt>
      <trkpt lat="44.98063" lon="0.63386">
        <ele>177.98</ele>
        <time>2018-03-16T14:02:46Z</time>
      </trkpt>
      <trkpt lat="44.9807" lon="0.63363">
        <ele>178.46</ele>
        <time>2018-03-16T14:03:04Z</time>
      </trkpt>
      <trkpt lat="44.98077" lon="0.6334">
        <ele>178.46</ele>
        <time>2018-03-16T14:03:19Z</time>
      </trkpt>
      <trkpt lat="44.9808" lon="0.63316">
        <ele>177.02</ele>
        <time>2018-03-16T14:03:31Z</time>
      </trkpt>
      <trkpt lat="44.98081" lon="0.63308">
        <ele>176.54</ele>
        <time>2018-03-16T14:03:35Z</time>
      </trkpt>
      <trkpt lat="44.98096" lon="0.63274">
        <ele>176.06</ele>
        <time>2018-03-16T14:03:54Z</time>
      </trkpt>
      <trkpt lat="44.98106" lon="0.63266">
        <ele>177.5</ele>
        <time>2018-03-16T14:04:05Z</time>
      </trkpt>
      <trkpt lat="44.9813" lon="0.6325">
        <ele>178.94</ele>
        <time>2018-03-16T14:04:27Z</time>
      </trkpt>
      <trkpt lat="44.98136" lon="0.63246">
        <ele>178.94</ele>
        <time>2018-03-16T14:04:32Z</time>
      </trkpt>
      <trkpt lat="44.98164" lon="0.63227">
        <ele>178.94</ele>
        <time>2018-03-16T14:04:51Z</time>
      </trkpt>
      <trkpt lat="44.98183" lon="0.63218">
        <ele>176.06</ele>
        <time>2018-03-16T14:05:04Z</time>
      </trkpt>
      <trkpt lat="44.98196" lon="0.63191">
        <ele>174.62</ele>
        <time>2018-03-16T14:05:22Z</time>
      </trkpt>
      <trkpt lat="44.98194" lon="0.63164">
        <ele>174.62</ele>
        <time>2018-03-16T14:05:37Z</time>
      </trkpt>
      <trkpt lat="44.98191" lon="0.6313">
        <ele>174.62</ele>
        <time>2018-03-16T14:05:54Z</time>
      </trkpt>
      <trkpt lat="44.98192" lon="0.63097">
        <ele>174.62</ele>
        <time>2018-03-16T14:06:12Z</time>
      </trkpt>
      <trkpt lat="44.98194" lon="0.63083">
        <ele>174.14</ele>
        <time>2018-03-16T14:06:20Z</time>
      </trkpt>
      <trkpt lat="44.9819" lon="0.6305">
        <ele>173.66</ele>
        <time>2018-03-16T14:06:37Z</time>
      </trkpt>
      <trkpt lat="44.98188" lon="0.63022">
        <ele>172.69</ele>
        <time>2018-03-16T14:06:52Z</time>
      </trkpt>
      <trkpt lat="44.98187" lon="0.63015">
        <ele>172.69</ele>
        <time>2018-03-16T14:06:56Z</time>
      </trkpt>
      <trkpt lat="44.98197" lon="0.62997">
        <ele>170.29</ele>
        <time>2018-03-16T14:07:15Z</time>
      </trkpt>
      <trkpt lat="44.98213" lon="0.62982">
        <ele>168.85</ele>
        <time>2018-03-16T14:07:34Z</time>
      </trkpt>
      <trkpt lat="44.98234" lon="0.62966">
        <ele>165.96</ele>
        <time>2018-03-16T14:07:55Z</time>
      </trkpt>
      <trkpt lat="44.98246" lon="0.62962">
        <ele>165.48</ele>
        <time>2018-03-16T14:08:10Z</time>
      </trkpt>
      <trkpt lat="44.98247" lon="0.62964">
        <ele>165.48</ele>
        <time>2018-03-16T14:08:42Z</time>
      </trkpt>
      <trkpt lat="44.98247" lon="0.62964">
        <ele>165.48</ele>
        <time>2018-03-16T14:09:23Z</time>
      </trkpt>
      <trkpt lat="44.98244" lon="0.62965">
        <ele>165.48</ele>
        <time>2018-03-16T14:09:53Z</time>
      </trkpt>
      <trkpt lat="44.98245" lon="0.62964">
        <ele>165.48</ele>
        <time>2018-03-16T14:10:27Z</time>
      </trkpt>
      <trkpt lat="44.98243" lon="0.6296">
        <ele>165.96</ele>
        <time>2018-03-16T14:11:02Z</time>
      </trkpt>
      <trkpt lat="44.98257" lon="0.6295">
        <ele>164.52</ele>
        <time>2018-03-16T14:11:18Z</time>
      </trkpt>
      <trkpt lat="44.98272" lon="0.62936">
        <ele>162.6</ele>
        <time>2018-03-16T14:11:35Z</time>
      </trkpt>
      <trkpt lat="44.98271" lon="0.62927">
        <ele>162.12</ele>
        <time>2018-03-16T14:11:50Z</time>
      </trkpt>
      <trkpt lat="44.98272" lon="0.62915">
        <ele>161.16</ele>
        <time>2018-03-16T14:12:05Z</time>
      </trkpt>
      <trkpt lat="44.98276" lon="0.62903">
        <ele>159.72</ele>
        <time>2018-03-16T14:12:11Z</time>
      </trkpt>
      <trkpt lat="44.98283" lon="0.62871">
        <ele>156.35</ele>
        <time>2018-03-16T14:12:30Z</time>
      </trkpt>
      <trkpt lat="44.9829" lon="0.62865">
        <ele>154.43</ele>
        <time>2018-03-16T14:12:45Z</time>
      </trkpt>
      <trkpt lat="44.98299" lon="0.62871">
        <ele>152.99</ele>
        <time>2018-03-16T14:13:03Z</time>
      </trkpt>
      <trkpt lat="44.98301" lon="0.6287">
        <ele>152.99</ele>
        <time>2018-03-16T14:13:35Z</time>
      </trkpt>
      <trkpt lat="44.98296" lon="0.62868">
        <ele>153.95</ele>
        <time>2018-03-16T14:13:57Z</time>
      </trkpt>
      <trkpt lat="44.98292" lon="0.62866">
        <ele>153.95</ele>
        <time>2018-03-16T14:14:00Z</time>
      </trkpt>
      <trkpt lat="44.98288" lon="0.62856">
        <ele>155.39</ele>
        <time>2018-03-16T14:14:06Z</time>
      </trkpt>
      <trkpt lat="44.98288" lon="0.62849">
        <ele>155.39</ele>
        <time>2018-03-16T14:14:10Z</time>
      </trkpt>
      <trkpt lat="44.98294" lon="0.62815">
        <ele>155.39</ele>
        <time>2018-03-16T14:14:27Z</time>
      </trkpt>
      <trkpt lat="44.98301" lon="0.62782">
        <ele>158.27</ele>
        <time>2018-03-16T14:14:46Z</time>
      </trkpt>
      <trkpt lat="44.98303" lon="0.62772">
        <ele>159.24</ele>
        <time>2018-03-16T14:14:52Z</time>
      </trkpt>
      <trkpt lat="44.9831" lon="0.62747">
        <ele>162.6</ele>
        <time>2018-03-16T14:15:08Z</time>
      </trkpt>
      <trkpt lat="44.98315" lon="0.62728">
        <ele>164.52</ele>
        <time>2018-03-16T14:15:21Z</time>
      </trkpt>
      <trkpt lat="44.98321" lon="0.627">
        <ele>166.45</ele>
        <time>2018-03-16T14:15:39Z</time>
      </trkpt>
      <trkpt lat="44.98312" lon="0.62683">
        <ele>167.41</ele>
        <time>2018-03-16T14:15:54Z</time>
      </trkpt>
      <trkpt lat="44.98308" lon="0.6268">
        <ele>167.89</ele>
        <time>2018-03-16T14:15:58Z</time>
      </trkpt>
      <trkpt lat="44.98289" lon="0.62666">
        <ele>168.37</ele>
        <time>2018-03-16T14:16:17Z</time>
      </trkpt>
      <trkpt lat="44.9827" lon="0.62654">
        <ele>168.85</ele>
        <time>2018-03-16T14:16:34Z</time>
      </trkpt>
      <trkpt lat="44.98248" lon="0.62642">
        <ele>169.33</ele>
        <time>2018-03-16T14:16:51Z</time>
      </trkpt>
      <trkpt lat="44.98229" lon="0.62632">
        <ele>170.29</ele>
        <time>2018-03-16T14:17:07Z</time>
      </trkpt>
      <trkpt lat="44.98207" lon="0.62612">
        <ele>170.29</ele>
        <time>2018-03-16T14:17:26Z</time>
      </trkpt>
      <trkpt lat="44.98196" lon="0.62585">
        <ele>171.73</ele>
        <time>2018-03-16T14:17:46Z</time>
      </trkpt>
      <trkpt lat="44.98186" lon="0.62562">
        <ele>171.25</ele>
        <time>2018-03-16T14:18:04Z</time>
      </trkpt>
      <trkpt lat="44.98174" lon="0.62543">
        <ele>172.21</ele>
        <time>2018-03-16T14:18:17Z</time>
      </trkpt>
      <trkpt lat="44.98149" lon="0.62536">
        <ele>172.69</ele>
        <time>2018-03-16T14:18:34Z</time>
      </trkpt>
      <trkpt lat="44.98142" lon="0.62539">
        <ele>173.17</ele>
        <time>2018-03-16T14:18:39Z</time>
      </trkpt>
      <trkpt lat="44.98136" lon="0.62541">
        <ele>173.17</ele>
        <time>2018-03-16T14:18:43Z</time>
      </trkpt>
      <trkpt lat="44.98115" lon="0.62556">
        <ele>173.66</ele>
        <time>2018-03-16T14:19:03Z</time>
      </trkpt>
      <trkpt lat="44.98112" lon="0.62559">
        <ele>172.21</ele>
        <time>2018-03-16T14:19:06Z</time>
      </trkpt>
      <trkpt lat="44.98092" lon="0.62578">
        <ele>170.29</ele>
        <time>2018-03-16T14:19:25Z</time>
      </trkpt>
      <trkpt lat="44.9809" lon="0.6258">
        <ele>170.29</ele>
        <time>2018-03-16T14:19:27Z</time>
      </trkpt>
      <trkpt lat="44.98084" lon="0.62579">
        <ele>170.29</ele>
        <time>2018-03-16T14:19:32Z</time>
      </trkpt>
      <trkpt lat="44.98074" lon="0.62559">
        <ele>171.73</ele>
        <time>2018-03-16T14:19:46Z</time>
      </trkpt>
      <trkpt lat="44.98065" lon="0.62534">
        <ele>173.17</ele>
        <time>2018-03-16T14:20:02Z</time>
      </trkpt>
      <trkpt lat="44.98051" lon="0.62507">
        <ele>175.58</ele>
        <time>2018-03-16T14:20:21Z</time>
      </trkpt>
      <trkpt lat="44.98035" lon="0.62486">
        <ele>176.54</ele>
        <time>2018-03-16T14:20:38Z</time>
      </trkpt>
      <trkpt lat="44.9802" lon="0.62461">
        <ele>178.46</ele>
        <time>2018-03-16T14:20:58Z</time>
      </trkpt>
      <trkpt lat="44.98013" lon="0.62439">
        <ele>179.42</ele>
        <time>2018-03-16T14:21:13Z</time>
      </trkpt>
      <trkpt lat="44.98008" lon="0.62413">
        <ele>180.87</ele>
        <time>2018-03-16T14:21:29Z</time>
      </trkpt>
      <trkpt lat="44.98001" lon="0.6238">
        <ele>180.87</ele>
        <time>2018-03-16T14:21:46Z</time>
      </trkpt>
      <trkpt lat="44.97994" lon="0.62352">
        <ele>180.87</ele>
        <time>2018-03-16T14:22:01Z</time>
      </trkpt>
      <trkpt lat="44.97986" lon="0.62317">
        <ele>178.94</ele>
        <time>2018-03-16T14:22:21Z</time>
      </trkpt>
      <trkpt lat="44.97983" lon="0.62291">
        <ele>177.5</ele>
        <time>2018-03-16T14:22:38Z</time>
      </trkpt>
      <trkpt lat="44.97987" lon="0.62272">
        <ele>177.5</ele>
        <time>2018-03-16T14:22:56Z</time>
      </trkpt>
      <trkpt lat="44.97992" lon="0.62265">
        <ele>177.02</ele>
        <time>2018-03-16T14:23:13Z</time>
      </trkpt>
      <trkpt lat="44.97999" lon="0.62251">
        <ele>175.1</ele>
        <time>2018-03-16T14:23:32Z</time>
      </trkpt>
      <trkpt lat="44.98001" lon="0.62249">
        <ele>175.1</ele>
        <time>2018-03-16T14:23:34Z</time>
      </trkpt>
      <trkpt lat="44.98027" lon="0.62237">
        <ele>171.73</ele>
        <time>2018-03-16T14:23:54Z</time>
      </trkpt>
      <trkpt lat="44.98062" lon="0.62234">
        <ele>169.33</ele>
        <time>2018-03-16T14:24:15Z</time>
      </trkpt>
      <trkpt lat="44.98094" lon="0.62229">
        <ele>166.45</ele>
        <time>2018-03-16T14:24:37Z</time>
      </trkpt>
      <trkpt lat="44.98123" lon="0.62225">
        <ele>165</ele>
        <time>2018-03-16T14:24:58Z</time>
      </trkpt>
      <trkpt lat="44.98152" lon="0.62222">
        <ele>163.08</ele>
        <time>2018-03-16T14:25:18Z</time>
      </trkpt>
      <trkpt lat="44.98179" lon="0.62215">
        <ele>161.16</ele>
        <time>2018-03-16T14:25:38Z</time>
      </trkpt>
      <trkpt lat="44.98202" lon="0.62207">
        <ele>158.75</ele>
        <time>2018-03-16T14:25:56Z</time>
      </trkpt>
      <trkpt lat="44.98229" lon="0.62206">
        <ele>157.31</ele>
        <time>2018-03-16T14:26:16Z</time>
      </trkpt>
      <trkpt lat="44.98255" lon="0.62213">
        <ele>155.39</ele>
        <time>2018-03-16T14:26:37Z</time>
      </trkpt>
      <trkpt lat="44.98265" lon="0.62215">
        <ele>154.43</ele>
        <time>2018-03-16T14:26:46Z</time>
      </trkpt>
      <trkpt lat="44.98286" lon="0.62226">
        <ele>153.47</ele>
        <time>2018-03-16T14:27:08Z</time>
      </trkpt>
      <trkpt lat="44.98293" lon="0.62232">
        <ele>152.99</ele>
        <time>2018-03-16T14:27:23Z</time>
      </trkpt>
      <trkpt lat="44.98305" lon="0.62237">
        <ele>152.03</ele>
        <time>2018-03-16T14:27:46Z</time>
      </trkpt>
      <trkpt lat="44.98329" lon="0.62247">
        <ele>150.58</ele>
        <time>2018-03-16T14:28:06Z</time>
      </trkpt>
      <trkpt lat="44.98348" lon="0.6226">
        <ele>149.14</ele>
        <time>2018-03-16T14:28:25Z</time>
      </trkpt>
      <trkpt lat="44.98367" lon="0.62271">
        <ele>146.74</ele>
        <time>2018-03-16T14:28:43Z</time>
      </trkpt>
      <trkpt lat="44.98389" lon="0.62285">
        <ele>144.82</ele>
        <time>2018-03-16T14:29:01Z</time>
      </trkpt>
      <trkpt lat="44.98415" lon="0.6229">
        <ele>143.37</ele>
        <time>2018-03-16T14:29:19Z</time>
      </trkpt>
      <trkpt lat="44.9844" lon="0.62292">
        <ele>141.93</ele>
        <time>2018-03-16T14:29:38Z</time>
      </trkpt>
      <trkpt lat="44.98475" lon="0.62302">
        <ele>140.49</ele>
        <time>2018-03-16T14:29:57Z</time>
      </trkpt>
      <trkpt lat="44.98496" lon="0.62309">
        <ele>138.57</ele>
        <time>2018-03-16T14:30:15Z</time>
      </trkpt>
      <trkpt lat="44.98521" lon="0.62315">
        <ele>136.64</ele>
        <time>2018-03-16T14:30:35Z</time>
      </trkpt>
      <trkpt lat="44.98551" lon="0.62316">
        <ele>134.24</ele>
        <time>2018-03-16T14:30:53Z</time>
      </trkpt>
      <trkpt lat="44.98563" lon="0.62311">
        <ele>133.28</ele>
        <time>2018-03-16T14:31:00Z</time>
      </trkpt>
      <trkpt lat="44.98579" lon="0.62295">
        <ele>131.36</ele>
        <time>2018-03-16T14:31:16Z</time>
      </trkpt>
      <trkpt lat="44.98586" lon="0.6227">
        <ele>130.88</ele>
        <time>2018-03-16T14:31:32Z</time>
      </trkpt>
      <trkpt lat="44.98588" lon="0.62259">
        <ele>130.88</ele>
        <time>2018-03-16T14:31:38Z</time>
      </trkpt>
      <trkpt lat="44.98596" lon="0.6223">
        <ele>130.88</ele>
        <time>2018-03-16T14:31:55Z</time>
      </trkpt>
      <trkpt lat="44.986" lon="0.62197">
        <ele>130.4</ele>
        <time>2018-03-16T14:32:11Z</time>
      </trkpt>
      <trkpt lat="44.98602" lon="0.62164">
        <ele>130.4</ele>
        <time>2018-03-16T14:32:28Z</time>
      </trkpt>
      <trkpt lat="44.98603" lon="0.62143">
        <ele>130.4</ele>
        <time>2018-03-16T14:32:42Z</time>
      </trkpt>
      <trkpt lat="44.98602" lon="0.6214">
        <ele>131.84</ele>
        <time>2018-03-16T14:32:49Z</time>
      </trkpt>
      <trkpt lat="44.98589" lon="0.62127">
        <ele>133.28</ele>
        <time>2018-03-16T14:33:09Z</time>
      </trkpt>
      <trkpt lat="44.98584" lon="0.62119">
        <ele>133.28</ele>
        <time>2018-03-16T14:33:37Z</time>
      </trkpt>
      <trkpt lat="44.98589" lon="0.6212">
        <ele>132.8</ele>
        <time>2018-03-16T14:34:03Z</time>
      </trkpt>
      <trkpt lat="44.98583" lon="0.62113">
        <ele>132.8</ele>
        <time>2018-03-16T14:34:33Z</time>
      </trkpt>
      <trkpt lat="44.98592" lon="0.62126">
        <ele>133.28</ele>
        <time>2018-03-16T14:34:58Z</time>
      </trkpt>
      <trkpt lat="44.98598" lon="0.62128">
        <ele>133.28</ele>
        <time>2018-03-16T14:35:21Z</time>
      </trkpt>
      <trkpt lat="44.98607" lon="0.62132">
        <ele>130.4</ele>
        <time>2018-03-16T14:35:40Z</time>
      </trkpt>
      <trkpt lat="44.98612" lon="0.62145">
        <ele>129.92</ele>
        <time>2018-03-16T14:35:54Z</time>
      </trkpt>
      <trkpt lat="44.98606" lon="0.62168">
        <ele>129.92</ele>
        <time>2018-03-16T14:36:12Z</time>
      </trkpt>
      <trkpt lat="44.98601" lon="0.62205">
        <ele>129.92</ele>
        <time>2018-03-16T14:36:30Z</time>
      </trkpt>
      <trkpt lat="44.98595" lon="0.6224">
        <ele>129.92</ele>
        <time>2018-03-16T14:36:48Z</time>
      </trkpt>
      <trkpt lat="44.98595" lon="0.62244">
        <ele>129.92</ele>
        <time>2018-03-16T14:36:50Z</time>
      </trkpt>
      <trkpt lat="44.98594" lon="0.62267">
        <ele>129.92</ele>
        <time>2018-03-16T14:37:03Z</time>
      </trkpt>
      <trkpt lat="44.98596" lon="0.62271">
        <ele>129.92</ele>
        <time>2018-03-16T14:37:06Z</time>
      </trkpt>
      <trkpt lat="44.98617" lon="0.62288">
        <ele>128.95</ele>
        <time>2018-03-16T14:37:25Z</time>
      </trkpt>
      <trkpt lat="44.9864" lon="0.623">
        <ele>127.99</ele>
        <time>2018-03-16T14:37:44Z</time>
      </trkpt>
      <trkpt lat="44.98651" lon="0.62306">
        <ele>127.99</ele>
        <time>2018-03-16T14:37:57Z</time>
      </trkpt>
      <trkpt lat="44.98674" lon="0.62319">
        <ele>127.99</ele>
        <time>2018-03-16T14:38:14Z</time>
      </trkpt>
      <trkpt lat="44.98694" lon="0.62332">
        <ele>129.43</ele>
        <time>2018-03-16T14:38:32Z</time>
      </trkpt>
      <trkpt lat="44.98712" lon="0.6235">
        <ele>129.92</ele>
        <time>2018-03-16T14:38:49Z</time>
      </trkpt>
      <trkpt lat="44.98722" lon="0.62359">
        <ele>130.4</ele>
        <time>2018-03-16T14:38:58Z</time>
      </trkpt>
      <trkpt lat="44.98728" lon="0.62359">
        <ele>130.4</ele>
        <time>2018-03-16T14:39:03Z</time>
      </trkpt>
      <trkpt lat="44.98733" lon="0.62349">
        <ele>129.92</ele>
        <time>2018-03-16T14:39:11Z</time>
      </trkpt>
      <trkpt lat="44.98736" lon="0.62314">
        <ele>129.92</ele>
        <time>2018-03-16T14:39:30Z</time>
      </trkpt>
      <trkpt lat="44.98739" lon="0.62269">
        <ele>129.92</ele>
        <time>2018-03-16T14:39:51Z</time>
      </trkpt>
      <trkpt lat="44.98743" lon="0.62254">
        <ele>129.92</ele>
        <time>2018-03-16T14:39:59Z</time>
      </trkpt>
      <trkpt lat="44.98742" lon="0.62227">
        <ele>129.92</ele>
        <time>2018-03-16T14:40:15Z</time>
      </trkpt>
      <trkpt lat="44.98742" lon="0.62208">
        <ele>128.95</ele>
        <time>2018-03-16T14:40:25Z</time>
      </trkpt>
      <trkpt lat="44.98746" lon="0.62178">
        <ele>128.95</ele>
        <time>2018-03-16T14:40:41Z</time>
      </trkpt>
      <trkpt lat="44.98747" lon="0.62166">
        <ele>128.95</ele>
        <time>2018-03-16T14:40:47Z</time>
      </trkpt>
      <trkpt lat="44.98754" lon="0.62134">
        <ele>128.95</ele>
        <time>2018-03-16T14:41:04Z</time>
      </trkpt>
      <trkpt lat="44.9876" lon="0.62109">
        <ele>128.47</ele>
        <time>2018-03-16T14:41:19Z</time>
      </trkpt>
      <trkpt lat="44.98765" lon="0.6208">
        <ele>128.47</ele>
        <time>2018-03-16T14:41:35Z</time>
      </trkpt>
      <trkpt lat="44.98773" lon="0.62054">
        <ele>127.51</ele>
        <time>2018-03-16T14:41:49Z</time>
      </trkpt>
      <trkpt lat="44.98775" lon="0.62018">
        <ele>127.51</ele>
        <time>2018-03-16T14:42:04Z</time>
      </trkpt>
      <trkpt lat="44.98776" lon="0.62002">
        <ele>127.51</ele>
        <time>2018-03-16T14:42:12Z</time>
      </trkpt>
      <trkpt lat="44.98782" lon="0.61984">
        <ele>127.03</ele>
        <time>2018-03-16T14:42:23Z</time>
      </trkpt>
      <trkpt lat="44.98787" lon="0.61946">
        <ele>126.55</ele>
        <time>2018-03-16T14:42:42Z</time>
      </trkpt>
      <trkpt lat="44.98787" lon="0.61938">
        <ele>126.55</ele>
        <time>2018-03-16T14:42:46Z</time>
      </trkpt>
      <trkpt lat="44.98787" lon="0.61902">
        <ele>126.07</ele>
        <time>2018-03-16T14:43:04Z</time>
      </trkpt>
      <trkpt lat="44.98785" lon="0.61865">
        <ele>125.59</ele>
        <time>2018-03-16T14:43:23Z</time>
      </trkpt>
      <trkpt lat="44.98787" lon="0.61843">
        <ele>125.59</ele>
        <time>2018-03-16T14:43:38Z</time>
      </trkpt>
      <trkpt lat="44.98787" lon="0.61842">
        <ele>126.55</ele>
        <time>2018-03-16T14:43:40Z</time>
      </trkpt>
      <trkpt lat="44.98802" lon="0.61836">
        <ele>127.51</ele>
        <time>2018-03-16T14:43:56Z</time>
      </trkpt>
      <trkpt lat="44.98803" lon="0.61837">
        <ele>127.51</ele>
        <time>2018-03-16T14:43:57Z</time>
      </trkpt>
      <trkpt lat="44.98814" lon="0.61837">
        <ele>128.95</ele>
        <time>2018-03-16T14:44:03Z</time>
      </trkpt>
      <trkpt lat="44.98826" lon="0.61836">
        <ele>132.32</ele>
        <time>2018-03-16T14:44:17Z</time>
      </trkpt>
      <trkpt lat="44.9883" lon="0.61834">
        <ele>135.68</ele>
        <time>2018-03-16T14:44:32Z</time>
      </trkpt>
      <trkpt lat="44.98835" lon="0.61829">
        <ele>137.61</ele>
        <time>2018-03-16T14:44:47Z</time>
      </trkpt>
      <trkpt lat="44.98844" lon="0.61829">
        <ele>140.01</ele>
        <time>2018-03-16T14:45:07Z</time>
      </trkpt>
      <trkpt lat="44.98852" lon="0.61827">
        <ele>143.37</ele>
        <time>2018-03-16T14:45:27Z</time>
      </trkpt>
      <trkpt lat="44.98859" lon="0.61812">
        <ele>144.82</ele>
        <time>2018-03-16T14:45:49Z</time>
      </trkpt>
      <trkpt lat="44.98866" lon="0.61795">
        <ele>145.3</ele>
        <time>2018-03-16T14:46:17Z</time>
      </trkpt>
      <trkpt lat="44.98868" lon="0.61802">
        <ele>145.3</ele>
        <time>2018-03-16T14:46:52Z</time>
      </trkpt>
      <trkpt lat="44.98866" lon="0.61817">
        <ele>145.3</ele>
        <time>2018-03-16T14:47:27Z</time>
      </trkpt>
      <trkpt lat="44.98865" lon="0.61808">
        <ele>143.85</ele>
        <time>2018-03-16T14:47:36Z</time>
      </trkpt>
      <trkpt lat="44.98855" lon="0.61787">
        <ele>141.93</ele>
        <time>2018-03-16T14:47:57Z</time>
      </trkpt>
      <trkpt lat="44.98852" lon="0.61788">
        <ele>141.93</ele>
        <time>2018-03-16T14:48:24Z</time>
      </trkpt>
      <trkpt lat="44.98845" lon="0.61782">
        <ele>141.45</ele>
        <time>2018-03-16T14:48:54Z</time>
      </trkpt>
      <trkpt lat="44.98835" lon="0.61757">
        <ele>140.01</ele>
        <time>2018-03-16T14:49:10Z</time>
      </trkpt>
      <trkpt lat="44.98825" lon="0.61737">
        <ele>137.13</ele>
        <time>2018-03-16T14:49:26Z</time>
      </trkpt>
      <trkpt lat="44.98815" lon="0.61718">
        <ele>134.24</ele>
        <time>2018-03-16T14:49:44Z</time>
      </trkpt>
      <trkpt lat="44.98803" lon="0.61692">
        <ele>130.88</ele>
        <time>2018-03-16T14:50:00Z</time>
      </trkpt>
      <trkpt lat="44.98793" lon="0.61675">
        <ele>127.51</ele>
        <time>2018-03-16T14:50:20Z</time>
      </trkpt>
      <trkpt lat="44.98787" lon="0.61656">
        <ele>127.03</ele>
        <time>2018-03-16T14:50:34Z</time>
      </trkpt>
      <trkpt lat="44.98784" lon="0.61629">
        <ele>126.55</ele>
        <time>2018-03-16T14:50:51Z</time>
      </trkpt>
      <trkpt lat="44.98784" lon="0.61612">
        <ele>126.55</ele>
        <time>2018-03-16T14:51:02Z</time>
      </trkpt>
      <trkpt lat="44.98789" lon="0.61576">
        <ele>127.03</ele>
        <time>2018-03-16T14:51:19Z</time>
      </trkpt>
      <trkpt lat="44.98788" lon="0.61563">
        <ele>127.03</ele>
        <time>2018-03-16T14:51:37Z</time>
      </trkpt>
      <trkpt lat="44.98784" lon="0.61558">
        <ele>126.55</ele>
        <time>2018-03-16T14:51:57Z</time>
      </trkpt>
      <trkpt lat="44.98785" lon="0.6154">
        <ele>126.07</ele>
        <time>2018-03-16T14:52:11Z</time>
      </trkpt>
      <trkpt lat="44.98782" lon="0.6153">
        <ele>127.51</ele>
        <time>2018-03-16T14:52:20Z</time>
      </trkpt>
      <trkpt lat="44.98778" lon="0.61525">
        <ele>127.51</ele>
        <time>2018-03-16T14:52:26Z</time>
      </trkpt>
      <trkpt lat="44.98762" lon="0.61505">
        <ele>125.59</ele>
        <time>2018-03-16T14:52:43Z</time>
      </trkpt>
      <trkpt lat="44.9876" lon="0.615">
        <ele>125.59</ele>
        <time>2018-03-16T14:52:46Z</time>
      </trkpt>
      <trkpt lat="44.98749" lon="0.61471">
        <ele>125.11</ele>
        <time>2018-03-16T14:53:05Z</time>
      </trkpt>
      <trkpt lat="44.98738" lon="0.6144">
        <ele>124.63</ele>
        <time>2018-03-16T14:53:22Z</time>
      </trkpt>
      <trkpt lat="44.98731" lon="0.61405">
        <ele>124.15</ele>
        <time>2018-03-16T14:53:41Z</time>
      </trkpt>
      <trkpt lat="44.98727" lon="0.61372">
        <ele>123.67</ele>
        <time>2018-03-16T14:53:59Z</time>
      </trkpt>
      <trkpt lat="44.98726" lon="0.61344">
        <ele>123.19</ele>
        <time>2018-03-16T14:54:14Z</time>
      </trkpt>
      <trkpt lat="44.98728" lon="0.61317">
        <ele>122.71</ele>
        <time>2018-03-16T14:54:31Z</time>
      </trkpt>
      <trkpt lat="44.98732" lon="0.61287">
        <ele>122.71</ele>
        <time>2018-03-16T14:54:49Z</time>
      </trkpt>
      <trkpt lat="44.98734" lon="0.61249">
        <ele>122.71</ele>
        <time>2018-03-16T14:55:08Z</time>
      </trkpt>
      <trkpt lat="44.98736" lon="0.61208">
        <ele>122.71</ele>
        <time>2018-03-16T14:55:27Z</time>
      </trkpt>
      <trkpt lat="44.98739" lon="0.61183">
        <ele>122.71</ele>
        <time>2018-03-16T14:55:42Z</time>
      </trkpt>
      <trkpt lat="44.98743" lon="0.61151">
        <ele>122.71</ele>
        <time>2018-03-16T14:56:01Z</time>
      </trkpt>
      <trkpt lat="44.98743" lon="0.61137">
        <ele>122.71</ele>
        <time>2018-03-16T14:56:08Z</time>
      </trkpt>
      <trkpt lat="44.98744" lon="0.61094">
        <ele>122.71</ele>
        <time>2018-03-16T14:56:28Z</time>
      </trkpt>
      <trkpt lat="44.9875" lon="0.61055">
        <ele>122.71</ele>
        <time>2018-03-16T14:56:48Z</time>
      </trkpt>
      <trkpt lat="44.98759" lon="0.61026">
        <ele>122.22</ele>
        <time>2018-03-16T14:57:04Z</time>
      </trkpt>
      <trkpt lat="44.98775" lon="0.61003">
        <ele>121.74</ele>
        <time>2018-03-16T14:57:21Z</time>
      </trkpt>
      <trkpt lat="44.98771" lon="0.60974">
        <ele>121.26</ele>
        <time>2018-03-16T14:57:37Z</time>
      </trkpt>
      <trkpt lat="44.98766" lon="0.60952">
        <ele>121.26</ele>
        <time>2018-03-16T14:57:51Z</time>
      </trkpt>
      <trkpt lat="44.9876" lon="0.60928">
        <ele>121.26</ele>
        <time>2018-03-16T14:58:07Z</time>
      </trkpt>
      <trkpt lat="44.98754" lon="0.60894">
        <ele>121.26</ele>
        <time>2018-03-16T14:58:23Z</time>
      </trkpt>
      <trkpt lat="44.9875" lon="0.60863">
        <ele>121.26</ele>
        <time>2018-03-16T14:58:40Z</time>
      </trkpt>
      <trkpt lat="44.98748" lon="0.6083">
        <ele>121.26</ele>
        <time>2018-03-16T14:58:58Z</time>
      </trkpt>
      <trkpt lat="44.98747" lon="0.60798">
        <ele>121.26</ele>
        <time>2018-03-16T14:59:13Z</time>
      </trkpt>
      <trkpt lat="44.98747" lon="0.60761">
        <ele>121.26</ele>
        <time>2018-03-16T14:59:32Z</time>
      </trkpt>
      <trkpt lat="44.98748" lon="0.60727">
        <ele>121.26</ele>
        <time>2018-03-16T14:59:51Z</time>
      </trkpt>
      <trkpt lat="44.9875" lon="0.60696">
        <ele>121.74</ele>
        <time>2018-03-16T15:00:09Z</time>
      </trkpt>
      <trkpt lat="44.98752" lon="0.60663">
        <ele>121.74</ele>
        <time>2018-03-16T15:00:27Z</time>
      </trkpt>
      <trkpt lat="44.98756" lon="0.60628">
        <ele>121.26</ele>
        <time>2018-03-16T15:00:45Z</time>
      </trkpt>
      <trkpt lat="44.98762" lon="0.60596">
        <ele>121.26</ele>
        <time>2018-03-16T15:01:02Z</time>
      </trkpt>
      <trkpt lat="44.98772" lon="0.6057">
        <ele>120.78</ele>
        <time>2018-03-16T15:01:18Z</time>
      </trkpt>
      <trkpt lat="44.98783" lon="0.60541">
        <ele>120.3</ele>
        <time>2018-03-16T15:01:36Z</time>
      </trkpt>
      <trkpt lat="44.98796" lon="0.60514">
        <ele>120.3</ele>
        <time>2018-03-16T15:01:52Z</time>
      </trkpt>
      <trkpt lat="44.9881" lon="0.6049">
        <ele>120.3</ele>
        <time>2018-03-16T15:02:11Z</time>
      </trkpt>
      <trkpt lat="44.98826" lon="0.60465">
        <ele>120.3</ele>
        <time>2018-03-16T15:02:28Z</time>
      </trkpt>
      <trkpt lat="44.98842" lon="0.60441">
        <ele>120.3</ele>
        <time>2018-03-16T15:02:47Z</time>
      </trkpt>
      <trkpt lat="44.98858" lon="0.60422">
        <ele>120.3</ele>
        <time>2018-03-16T15:03:04Z</time>
      </trkpt>
      <trkpt lat="44.98875" lon="0.60405">
        <ele>118.86</ele>
        <time>2018-03-16T15:03:19Z</time>
      </trkpt>
      <trkpt lat="44.98879" lon="0.60402">
        <ele>118.86</ele>
        <time>2018-03-16T15:03:41Z</time>
      </trkpt>
      <trkpt lat="44.98885" lon="0.60404">
        <ele>120.3</ele>
        <time>2018-03-16T15:03:47Z</time>
      </trkpt>
      <trkpt lat="44.98906" lon="0.60412">
        <ele>122.22</ele>
        <time>2018-03-16T15:04:06Z</time>
      </trkpt>
      <trkpt lat="44.98926" lon="0.60427">
        <ele>125.59</ele>
        <time>2018-03-16T15:04:26Z</time>
      </trkpt>
      <trkpt lat="44.98944" lon="0.60437">
        <ele>127.51</ele>
        <time>2018-03-16T15:04:43Z</time>
      </trkpt>
      <trkpt lat="44.98964" lon="0.6045">
        <ele>129.43</ele>
        <time>2018-03-16T15:05:01Z</time>
      </trkpt>
      <trkpt lat="44.98967" lon="0.60451">
        <ele>129.43</ele>
        <time>2018-03-16T15:05:03Z</time>
      </trkpt>
      <trkpt lat="44.98983" lon="0.6046">
        <ele>130.88</ele>
        <time>2018-03-16T15:05:18Z</time>
      </trkpt>
      <trkpt lat="44.98986" lon="0.60462">
        <ele>130.88</ele>
        <time>2018-03-16T15:05:21Z</time>
      </trkpt>
      <trkpt lat="44.99006" lon="0.60469">
        <ele>131.36</ele>
        <time>2018-03-16T15:05:38Z</time>
      </trkpt>
      <trkpt lat="44.99027" lon="0.60476">
        <ele>131.36</ele>
        <time>2018-03-16T15:05:55Z</time>
      </trkpt>
      <trkpt lat="44.99038" lon="0.6048">
        <ele>129.92</ele>
        <time>2018-03-16T15:06:03Z</time>
      </trkpt>
      <trkpt lat="44.99063" lon="0.60489">
        <ele>129.92</ele>
        <time>2018-03-16T15:06:20Z</time>
      </trkpt>
      <trkpt lat="44.99082" lon="0.60495">
        <ele>129.92</ele>
        <time>2018-03-16T15:06:36Z</time>
      </trkpt>
      <trkpt lat="44.99102" lon="0.60507">
        <ele>129.92</ele>
        <time>2018-03-16T15:06:52Z</time>
      </trkpt>
      <trkpt lat="44.99114" lon="0.60513">
        <ele>129.92</ele>
        <time>2018-03-16T15:07:01Z</time>
      </trkpt>
      <trkpt lat="44.99115" lon="0.60515">
        <ele>129.92</ele>
        <time>2018-03-16T15:07:03Z</time>
      </trkpt>
      <trkpt lat="44.99128" lon="0.60527">
        <ele>131.84</ele>
        <time>2018-03-16T15:07:22Z</time>
      </trkpt>
      <trkpt lat="44.99159" lon="0.60539">
        <ele>132.32</ele>
        <time>2018-03-16T15:07:39Z</time>
      </trkpt>
      <trkpt lat="44.99182" lon="0.6055">
        <ele>132.8</ele>
        <time>2018-03-16T15:07:56Z</time>
      </trkpt>
      <trkpt lat="44.99197" lon="0.60559">
        <ele>132.8</ele>
        <time>2018-03-16T15:08:09Z</time>
      </trkpt>
      <trkpt lat="44.99206" lon="0.60565">
        <ele>131.36</ele>
        <time>2018-03-16T15:08:18Z</time>
      </trkpt>
      <trkpt lat="44.99225" lon="0.60576">
        <ele>130.88</ele>
        <time>2018-03-16T15:08:34Z</time>
      </trkpt>
      <trkpt lat="44.99243" lon="0.60588">
        <ele>130.88</ele>
        <time>2018-03-16T15:08:53Z</time>
      </trkpt>
      <trkpt lat="44.99273" lon="0.60597">
        <ele>132.8</ele>
        <time>2018-03-16T15:09:12Z</time>
      </trkpt>
      <trkpt lat="44.993" lon="0.60601">
        <ele>133.76</ele>
        <time>2018-03-16T15:09:31Z</time>
      </trkpt>
      <trkpt lat="44.99318" lon="0.60605">
        <ele>134.72</ele>
        <time>2018-03-16T15:09:46Z</time>
      </trkpt>
      <trkpt lat="44.9934" lon="0.60615">
        <ele>135.68</ele>
        <time>2018-03-16T15:10:04Z</time>
      </trkpt>
      <trkpt lat="44.99359" lon="0.60626">
        <ele>138.09</ele>
        <time>2018-03-16T15:10:22Z</time>
      </trkpt>
      <trkpt lat="44.99376" lon="0.60634">
        <ele>141.45</ele>
        <time>2018-03-16T15:10:38Z</time>
      </trkpt>
      <trkpt lat="44.99395" lon="0.60645">
        <ele>144.34</ele>
        <time>2018-03-16T15:10:56Z</time>
      </trkpt>
      <trkpt lat="44.9941" lon="0.60657">
        <ele>146.74</ele>
        <time>2018-03-16T15:11:14Z</time>
      </trkpt>
      <trkpt lat="44.99423" lon="0.60671">
        <ele>149.14</ele>
        <time>2018-03-16T15:11:31Z</time>
      </trkpt>
      <trkpt lat="44.99439" lon="0.60694">
        <ele>151.54</ele>
        <time>2018-03-16T15:11:49Z</time>
      </trkpt>
      <trkpt lat="44.99447" lon="0.60717">
        <ele>152.51</ele>
        <time>2018-03-16T15:12:04Z</time>
      </trkpt>
      <trkpt lat="44.99449" lon="0.60726">
        <ele>152.99</ele>
        <time>2018-03-16T15:12:09Z</time>
      </trkpt>
      <trkpt lat="44.99452" lon="0.6074">
        <ele>153.47</ele>
        <time>2018-03-16T15:12:17Z</time>
      </trkpt>
      <trkpt lat="44.99453" lon="0.60748">
        <ele>153.47</ele>
        <time>2018-03-16T15:12:21Z</time>
      </trkpt>
      <trkpt lat="44.99461" lon="0.6077">
        <ele>153.95</ele>
        <time>2018-03-16T15:12:35Z</time>
      </trkpt>
      <trkpt lat="44.99475" lon="0.60788">
        <ele>154.91</ele>
        <time>2018-03-16T15:12:50Z</time>
      </trkpt>
      <trkpt lat="44.99495" lon="0.60805">
        <ele>156.35</ele>
        <time>2018-03-16T15:13:06Z</time>
      </trkpt>
      <trkpt lat="44.99511" lon="0.60809">
        <ele>158.27</ele>
        <time>2018-03-16T15:13:22Z</time>
      </trkpt>
      <trkpt lat="44.99515" lon="0.60809">
        <ele>158.75</ele>
        <time>2018-03-16T15:13:25Z</time>
      </trkpt>
      <trkpt lat="44.99531" lon="0.6081">
        <ele>159.72</ele>
        <time>2018-03-16T15:13:33Z</time>
      </trkpt>
      <trkpt lat="44.99546" lon="0.60813">
        <ele>161.64</ele>
        <time>2018-03-16T15:13:48Z</time>
      </trkpt>
      <trkpt lat="44.99551" lon="0.60815">
        <ele>162.6</ele>
        <time>2018-03-16T15:13:54Z</time>
      </trkpt>
      <trkpt lat="44.99566" lon="0.60822">
        <ele>164.52</ele>
        <time>2018-03-16T15:14:09Z</time>
      </trkpt>
      <trkpt lat="44.99576" lon="0.60827">
        <ele>165.48</ele>
        <time>2018-03-16T15:14:19Z</time>
      </trkpt>
      <trkpt lat="44.99593" lon="0.60837">
        <ele>167.89</ele>
        <time>2018-03-16T15:14:35Z</time>
      </trkpt>
      <trkpt lat="44.996" lon="0.6084">
        <ele>168.37</ele>
        <time>2018-03-16T15:14:42Z</time>
      </trkpt>
      <trkpt lat="44.99614" lon="0.60846">
        <ele>168.85</ele>
        <time>2018-03-16T15:14:55Z</time>
      </trkpt>
      <trkpt lat="44.99634" lon="0.60853">
        <ele>169.33</ele>
        <time>2018-03-16T15:15:11Z</time>
      </trkpt>
      <trkpt lat="44.99658" lon="0.60867">
        <ele>167.41</ele>
        <time>2018-03-16T15:15:29Z</time>
      </trkpt>
      <trkpt lat="44.99673" lon="0.60894">
        <ele>166.45</ele>
        <time>2018-03-16T15:15:45Z</time>
      </trkpt>
      <trkpt lat="44.99674" lon="0.60895">
        <ele>166.45</ele>
        <time>2018-03-16T15:15:46Z</time>
      </trkpt>
      <trkpt lat="44.99691" lon="0.60924">
        <ele>165.96</ele>
        <time>2018-03-16T15:16:06Z</time>
      </trkpt>
      <trkpt lat="44.99696" lon="0.60933">
        <ele>167.41</ele>
        <time>2018-03-16T15:16:13Z</time>
      </trkpt>
      <trkpt lat="44.99699" lon="0.60938">
        <ele>167.89</ele>
        <time>2018-03-16T15:16:16Z</time>
      </trkpt>
      <trkpt lat="44.99701" lon="0.60943">
        <ele>167.89</ele>
        <time>2018-03-16T15:16:19Z</time>
      </trkpt>
      <trkpt lat="44.99707" lon="0.60973">
        <ele>169.33</ele>
        <time>2018-03-16T15:16:36Z</time>
      </trkpt>
      <trkpt lat="44.99711" lon="0.60999">
        <ele>170.29</ele>
        <time>2018-03-16T15:16:50Z</time>
      </trkpt>
      <trkpt lat="44.99713" lon="0.6101">
        <ele>170.77</ele>
        <time>2018-03-16T15:16:56Z</time>
      </trkpt>
      <trkpt lat="44.99718" lon="0.6104">
        <ele>171.25</ele>
        <time>2018-03-16T15:17:13Z</time>
      </trkpt>
      <trkpt lat="44.99728" lon="0.61062">
        <ele>171.25</ele>
        <time>2018-03-16T15:17:28Z</time>
      </trkpt>
      <trkpt lat="44.99742" lon="0.61083">
        <ele>170.29</ele>
        <time>2018-03-16T15:17:43Z</time>
      </trkpt>
      <trkpt lat="44.99756" lon="0.61102">
        <ele>169.81</ele>
        <time>2018-03-16T15:17:59Z</time>
      </trkpt>
      <trkpt lat="44.99768" lon="0.61121">
        <ele>169.33</ele>
        <time>2018-03-16T15:18:13Z</time>
      </trkpt>
      <trkpt lat="44.9978" lon="0.61139">
        <ele>169.33</ele>
        <time>2018-03-16T15:18:24Z</time>
      </trkpt>
      <trkpt lat="44.99798" lon="0.61177">
        <ele>170.77</ele>
        <time>2018-03-16T15:18:44Z</time>
      </trkpt>
      <trkpt lat="44.99798" lon="0.61206">
        <ele>172.21</ele>
        <time>2018-03-16T15:19:00Z</time>
      </trkpt>
      <trkpt lat="44.99797" lon="0.61217">
        <ele>172.69</ele>
        <time>2018-03-16T15:19:05Z</time>
      </trkpt>
      <trkpt lat="44.99795" lon="0.61252">
        <ele>173.66</ele>
        <time>2018-03-16T15:19:24Z</time>
      </trkpt>
      <trkpt lat="44.99792" lon="0.61279">
        <ele>174.62</ele>
        <time>2018-03-16T15:19:39Z</time>
      </trkpt>
      <trkpt lat="44.99791" lon="0.61281">
        <ele>174.62</ele>
        <time>2018-03-16T15:19:40Z</time>
      </trkpt>
      <trkpt lat="44.9978" lon="0.61312">
        <ele>176.06</ele>
        <time>2018-03-16T15:19:56Z</time>
      </trkpt>
      <trkpt lat="44.99772" lon="0.61342">
        <ele>177.98</ele>
        <time>2018-03-16T15:20:12Z</time>
      </trkpt>
      <trkpt lat="44.99763" lon="0.61371">
        <ele>178.46</ele>
        <time>2018-03-16T15:20:28Z</time>
      </trkpt>
      <trkpt lat="44.99753" lon="0.614">
        <ele>180.38</ele>
        <time>2018-03-16T15:20:44Z</time>
      </trkpt>
      <trkpt lat="44.99745" lon="0.61427">
        <ele>180.87</ele>
        <time>2018-03-16T15:20:59Z</time>
      </trkpt>
      <trkpt lat="44.99737" lon="0.61454">
        <ele>180.87</ele>
        <time>2018-03-16T15:21:16Z</time>
      </trkpt>
      <trkpt lat="44.9973" lon="0.61488">
        <ele>179.9</ele>
        <time>2018-03-16T15:21:36Z</time>
      </trkpt>
      <trkpt lat="44.99725" lon="0.61519">
        <ele>179.9</ele>
        <time>2018-03-16T15:21:53Z</time>
      </trkpt>
      <trkpt lat="44.99716" lon="0.61553">
        <ele>179.9</ele>
        <time>2018-03-16T15:22:11Z</time>
      </trkpt>
      <trkpt lat="44.99711" lon="0.61584">
        <ele>181.35</ele>
        <time>2018-03-16T15:22:28Z</time>
      </trkpt>
      <trkpt lat="44.99713" lon="0.61607">
        <ele>182.31</ele>
        <time>2018-03-16T15:22:41Z</time>
      </trkpt>
      <trkpt lat="44.99715" lon="0.61641">
        <ele>182.79</ele>
        <time>2018-03-16T15:22:57Z</time>
      </trkpt>
      <trkpt lat="44.99714" lon="0.61671">
        <ele>184.23</ele>
        <time>2018-03-16T15:23:14Z</time>
      </trkpt>
      <trkpt lat="44.99707" lon="0.61703">
        <ele>185.67</ele>
        <time>2018-03-16T15:23:31Z</time>
      </trkpt>
      <trkpt lat="44.99699" lon="0.61733">
        <ele>187.11</ele>
        <time>2018-03-16T15:23:48Z</time>
      </trkpt>
      <trkpt lat="44.99691" lon="0.61766">
        <ele>188.56</ele>
        <time>2018-03-16T15:24:06Z</time>
      </trkpt>
      <trkpt lat="44.99687" lon="0.61801">
        <ele>189.04</ele>
        <time>2018-03-16T15:24:24Z</time>
      </trkpt>
      <trkpt lat="44.99683" lon="0.61827">
        <ele>190</ele>
        <time>2018-03-16T15:24:38Z</time>
      </trkpt>
      <trkpt lat="44.99681" lon="0.61856">
        <ele>190.96</ele>
        <time>2018-03-16T15:24:52Z</time>
      </trkpt>
      <trkpt lat="44.99676" lon="0.61884">
        <ele>191.92</ele>
        <time>2018-03-16T15:25:07Z</time>
      </trkpt>
      <trkpt lat="44.99669" lon="0.6192">
        <ele>191.92</ele>
        <time>2018-03-16T15:25:25Z</time>
      </trkpt>
      <trkpt lat="44.99668" lon="0.61926">
        <ele>190.48</ele>
        <time>2018-03-16T15:25:28Z</time>
      </trkpt>
      <trkpt lat="44.99664" lon="0.61962">
        <ele>190.48</ele>
        <time>2018-03-16T15:25:45Z</time>
      </trkpt>
      <trkpt lat="44.99663" lon="0.61994">
        <ele>189.04</ele>
        <time>2018-03-16T15:26:00Z</time>
      </trkpt>
      <trkpt lat="44.99665" lon="0.62017">
        <ele>188.08</ele>
        <time>2018-03-16T15:26:12Z</time>
      </trkpt>
      <trkpt lat="44.99666" lon="0.6203">
        <ele>187.59</ele>
        <time>2018-03-16T15:26:18Z</time>
      </trkpt>
      <trkpt lat="44.99668" lon="0.62065">
        <ele>184.23</ele>
        <time>2018-03-16T15:26:35Z</time>
      </trkpt>
      <trkpt lat="44.9967" lon="0.62108">
        <ele>181.83</ele>
        <time>2018-03-16T15:26:54Z</time>
      </trkpt>
      <trkpt lat="44.99663" lon="0.62139">
        <ele>181.83</ele>
        <time>2018-03-16T15:27:11Z</time>
      </trkpt>
      <trkpt lat="44.99645" lon="0.62174">
        <ele>181.83</ele>
        <time>2018-03-16T15:27:30Z</time>
      </trkpt>
      <trkpt lat="44.9963" lon="0.62205">
        <ele>180.38</ele>
        <time>2018-03-16T15:27:48Z</time>
      </trkpt>
      <trkpt lat="44.99626" lon="0.6222">
        <ele>178.94</ele>
        <time>2018-03-16T15:27:56Z</time>
      </trkpt>
      <trkpt lat="44.99621" lon="0.62256">
        <ele>175.58</ele>
        <time>2018-03-16T15:28:14Z</time>
      </trkpt>
      <trkpt lat="44.99617" lon="0.62294">
        <ele>173.66</ele>
        <time>2018-03-16T15:28:32Z</time>
      </trkpt>
      <trkpt lat="44.99611" lon="0.62324">
        <ele>173.17</ele>
        <time>2018-03-16T15:28:47Z</time>
      </trkpt>
      <trkpt lat="44.99598" lon="0.62358">
        <ele>172.21</ele>
        <time>2018-03-16T15:29:05Z</time>
      </trkpt>
      <trkpt lat="44.99583" lon="0.62385">
        <ele>172.21</ele>
        <time>2018-03-16T15:29:23Z</time>
      </trkpt>
      <trkpt lat="44.99565" lon="0.62413">
        <ele>171.73</ele>
        <time>2018-03-16T15:29:41Z</time>
      </trkpt>
      <trkpt lat="44.99544" lon="0.62442">
        <ele>172.21</ele>
        <time>2018-03-16T15:30:02Z</time>
      </trkpt>
      <trkpt lat="44.99538" lon="0.62454">
        <ele>172.21</ele>
        <time>2018-03-16T15:30:11Z</time>
      </trkpt>
      <trkpt lat="44.99526" lon="0.62492">
        <ele>172.21</ele>
        <time>2018-03-16T15:30:32Z</time>
      </trkpt>
      <trkpt lat="44.9952" lon="0.62527">
        <ele>173.66</ele>
        <time>2018-03-16T15:30:50Z</time>
      </trkpt>
      <trkpt lat="44.9951" lon="0.62564">
        <ele>173.66</ele>
        <time>2018-03-16T15:31:07Z</time>
      </trkpt>
      <trkpt lat="44.99495" lon="0.62599">
        <ele>173.66</ele>
        <time>2018-03-16T15:31:26Z</time>
      </trkpt>
      <trkpt lat="44.99491" lon="0.6261">
        <ele>173.66</ele>
        <time>2018-03-16T15:31:38Z</time>
      </trkpt>
      <trkpt lat="44.99473" lon="0.6263">
        <ele>173.66</ele>
        <time>2018-03-16T15:31:55Z</time>
      </trkpt>
      <trkpt lat="44.99458" lon="0.62646">
        <ele>173.66</ele>
        <time>2018-03-16T15:32:12Z</time>
      </trkpt>
      <trkpt lat="44.99453" lon="0.62651">
        <ele>172.69</ele>
        <time>2018-03-16T15:32:28Z</time>
      </trkpt>
      <trkpt lat="44.99445" lon="0.62656">
        <ele>172.21</ele>
        <time>2018-03-16T15:32:39Z</time>
      </trkpt>
      <trkpt lat="44.99423" lon="0.62666">
        <ele>170.29</ele>
        <time>2018-03-16T15:32:58Z</time>
      </trkpt>
      <trkpt lat="44.9942" lon="0.62672">
        <ele>169.81</ele>
        <time>2018-03-16T15:33:06Z</time>
      </trkpt>
      <trkpt lat="44.99425" lon="0.62681">
        <ele>169.81</ele>
        <time>2018-03-16T15:33:13Z</time>
      </trkpt>
      <trkpt lat="44.99427" lon="0.62686">
        <ele>169.81</ele>
        <time>2018-03-16T15:33:16Z</time>
      </trkpt>
      <trkpt lat="44.99431" lon="0.62692">
        <ele>170.77</ele>
        <time>2018-03-16T15:33:32Z</time>
      </trkpt>
      <trkpt lat="44.99432" lon="0.62696">
        <ele>170.77</ele>
        <time>2018-03-16T15:33:45Z</time>
      </trkpt>
      <trkpt lat="44.99436" lon="0.62695">
        <ele>171.25</ele>
        <time>2018-03-16T15:33:58Z</time>
      </trkpt>
      <trkpt lat="44.99453" lon="0.6271">
        <ele>171.25</ele>
        <time>2018-03-16T15:34:14Z</time>
      </trkpt>
      <trkpt lat="44.99471" lon="0.62731">
        <ele>171.25</ele>
        <time>2018-03-16T15:34:32Z</time>
      </trkpt>
      <trkpt lat="44.99475" lon="0.62757">
        <ele>171.73</ele>
        <time>2018-03-16T15:34:46Z</time>
      </trkpt>
      <trkpt lat="44.99475" lon="0.62763">
        <ele>171.73</ele>
        <time>2018-03-16T15:34:49Z</time>
      </trkpt>
      <trkpt lat="44.99475" lon="0.6277">
        <ele>172.21</ele>
        <time>2018-03-16T15:34:53Z</time>
      </trkpt>
      <trkpt lat="44.99474" lon="0.62796">
        <ele>172.21</ele>
        <time>2018-03-16T15:35:07Z</time>
      </trkpt>
      <trkpt lat="44.99474" lon="0.62802">
        <ele>172.21</ele>
        <time>2018-03-16T15:35:10Z</time>
      </trkpt>
      <trkpt lat="44.9948" lon="0.62813">
        <ele>172.69</ele>
        <time>2018-03-16T15:35:18Z</time>
      </trkpt>
      <trkpt lat="44.99503" lon="0.62815">
        <ele>173.17</ele>
        <time>2018-03-16T15:35:36Z</time>
      </trkpt>
      <trkpt lat="44.99527" lon="0.62827">
        <ele>174.14</ele>
        <time>2018-03-16T15:35:56Z</time>
      </trkpt>
      <trkpt lat="44.99538" lon="0.62839">
        <ele>174.62</ele>
        <time>2018-03-16T15:36:08Z</time>
      </trkpt>
      <trkpt lat="44.99559" lon="0.62859">
        <ele>174.62</ele>
        <time>2018-03-16T15:36:27Z</time>
      </trkpt>
      <trkpt lat="44.99567" lon="0.62868">
        <ele>173.17</ele>
        <time>2018-03-16T15:36:36Z</time>
      </trkpt>
      <trkpt lat="44.99574" lon="0.6288">
        <ele>172.69</ele>
        <time>2018-03-16T15:36:52Z</time>
      </trkpt>
      <trkpt lat="44.9959" lon="0.62898">
        <ele>172.21</ele>
        <time>2018-03-16T15:37:09Z</time>
      </trkpt>
      <trkpt lat="44.99609" lon="0.62916">
        <ele>171.73</ele>
        <time>2018-03-16T15:37:27Z</time>
      </trkpt>
      <trkpt lat="44.99626" lon="0.62938">
        <ele>171.25</ele>
        <time>2018-03-16T15:37:46Z</time>
      </trkpt>
      <trkpt lat="44.99623" lon="0.6294">
        <ele>171.25</ele>
        <time>2018-03-16T15:37:49Z</time>
      </trkpt>
      <trkpt lat="44.996" lon="0.62952">
        <ele>169.81</ele>
        <time>2018-03-16T15:38:07Z</time>
      </trkpt>
      <trkpt lat="44.99595" lon="0.62957">
        <ele>169.81</ele>
        <time>2018-03-16T15:38:20Z</time>
      </trkpt>
      <trkpt lat="44.99581" lon="0.62977">
        <ele>169.81</ele>
        <time>2018-03-16T15:38:35Z</time>
      </trkpt>
      <trkpt lat="44.99572" lon="0.62992">
        <ele>170.29</ele>
        <time>2018-03-16T15:38:50Z</time>
      </trkpt>
      <trkpt lat="44.99564" lon="0.63012">
        <ele>170.29</ele>
        <time>2018-03-16T15:39:10Z</time>
      </trkpt>
      <trkpt lat="44.99561" lon="0.63017">
        <ele>170.29</ele>
        <time>2018-03-16T15:39:16Z</time>
      </trkpt>
      <trkpt lat="44.99557" lon="0.63023">
        <ele>170.29</ele>
        <time>2018-03-16T15:39:20Z</time>
      </trkpt>
      <trkpt lat="44.99552" lon="0.6303">
        <ele>170.29</ele>
        <time>2018-03-16T15:39:29Z</time>
      </trkpt>
      <trkpt lat="44.99551" lon="0.63032">
        <ele>170.29</ele>
        <time>2018-03-16T15:39:31Z</time>
      </trkpt>
      <trkpt lat="44.99537" lon="0.63057">
        <ele>170.29</ele>
        <time>2018-03-16T15:39:49Z</time>
      </trkpt>
      <trkpt lat="44.9952" lon="0.63079">
        <ele>170.29</ele>
        <time>2018-03-16T15:40:05Z</time>
      </trkpt>
      <trkpt lat="44.99501" lon="0.63099">
        <ele>171.73</ele>
        <time>2018-03-16T15:40:21Z</time>
      </trkpt>
      <trkpt lat="44.99482" lon="0.63118">
        <ele>172.69</ele>
        <time>2018-03-16T15:40:38Z</time>
      </trkpt>
      <trkpt lat="44.99465" lon="0.63135">
        <ele>174.14</ele>
        <time>2018-03-16T15:40:54Z</time>
      </trkpt>
      <trkpt lat="44.99444" lon="0.63156">
        <ele>174.62</ele>
        <time>2018-03-16T15:41:12Z</time>
      </trkpt>
      <trkpt lat="44.99423" lon="0.63178">
        <ele>175.58</ele>
        <time>2018-03-16T15:41:31Z</time>
      </trkpt>
      <trkpt lat="44.99407" lon="0.63193">
        <ele>176.06</ele>
        <time>2018-03-16T15:41:45Z</time>
      </trkpt>
      <trkpt lat="44.99396" lon="0.63202">
        <ele>174.62</ele>
        <time>2018-03-16T15:41:55Z</time>
      </trkpt>
      <trkpt lat="44.99374" lon="0.63218">
        <ele>173.66</ele>
        <time>2018-03-16T15:42:13Z</time>
      </trkpt>
      <trkpt lat="44.99351" lon="0.63232">
        <ele>173.17</ele>
        <time>2018-03-16T15:42:30Z</time>
      </trkpt>
      <trkpt lat="44.99329" lon="0.63246">
        <ele>173.17</ele>
        <time>2018-03-16T15:42:46Z</time>
      </trkpt>
      <trkpt lat="44.99308" lon="0.63261">
        <ele>173.17</ele>
        <time>2018-03-16T15:43:02Z</time>
      </trkpt>
      <trkpt lat="44.99293" lon="0.63274">
        <ele>173.17</ele>
        <time>2018-03-16T15:43:15Z</time>
      </trkpt>
      <trkpt lat="44.99288" lon="0.6328">
        <ele>173.17</ele>
        <time>2018-03-16T15:43:20Z</time>
      </trkpt>
      <trkpt lat="44.99286" lon="0.63283">
        <ele>174.62</ele>
        <time>2018-03-16T15:43:22Z</time>
      </trkpt>
      <trkpt lat="44.99275" lon="0.63309">
        <ele>176.06</ele>
        <time>2018-03-16T15:43:39Z</time>
      </trkpt>
      <trkpt lat="44.99265" lon="0.63334">
        <ele>177.5</ele>
        <time>2018-03-16T15:43:55Z</time>
      </trkpt>
      <trkpt lat="44.99254" lon="0.6336">
        <ele>178.94</ele>
        <time>2018-03-16T15:44:11Z</time>
      </trkpt>
      <trkpt lat="44.99244" lon="0.63386">
        <ele>179.42</ele>
        <time>2018-03-16T15:44:27Z</time>
      </trkpt>
      <trkpt lat="44.99234" lon="0.63405">
        <ele>179.9</ele>
        <time>2018-03-16T15:44:42Z</time>
      </trkpt>
      <trkpt lat="44.99231" lon="0.63407">
        <ele>179.9</ele>
        <time>2018-03-16T15:44:47Z</time>
      </trkpt>
      <trkpt lat="44.99226" lon="0.63406">
        <ele>179.9</ele>
        <time>2018-03-16T15:44:51Z</time>
      </trkpt>
      <trkpt lat="44.99203" lon="0.63397">
        <ele>178.94</ele>
        <time>2018-03-16T15:45:09Z</time>
      </trkpt>
      <trkpt lat="44.99181" lon="0.6339">
        <ele>177.98</ele>
        <time>2018-03-16T15:45:25Z</time>
      </trkpt>
      <trkpt lat="44.99161" lon="0.63384">
        <ele>175.1</ele>
        <time>2018-03-16T15:45:40Z</time>
      </trkpt>
      <trkpt lat="44.99137" lon="0.63375">
        <ele>173.66</ele>
        <time>2018-03-16T15:45:57Z</time>
      </trkpt>
      <trkpt lat="44.99116" lon="0.63368">
        <ele>173.17</ele>
        <time>2018-03-16T15:46:14Z</time>
      </trkpt>
      <trkpt lat="44.99104" lon="0.63351">
        <ele>172.69</ele>
        <time>2018-03-16T15:46:28Z</time>
      </trkpt>
      <trkpt lat="44.99084" lon="0.63343">
        <ele>171.25</ele>
        <time>2018-03-16T15:46:45Z</time>
      </trkpt>
      <trkpt lat="44.9907" lon="0.63335">
        <ele>169.81</ele>
        <time>2018-03-16T15:47:03Z</time>
      </trkpt>
      <trkpt lat="44.99066" lon="0.63328">
        <ele>169.33</ele>
        <time>2018-03-16T15:47:08Z</time>
      </trkpt>
      <trkpt lat="44.99037" lon="0.6333">
        <ele>166.93</ele>
        <time>2018-03-16T15:47:27Z</time>
      </trkpt>
      <trkpt lat="44.99019" lon="0.63325">
        <ele>165.48</ele>
        <time>2018-03-16T15:47:45Z</time>
      </trkpt>
      <trkpt lat="44.99017" lon="0.63304">
        <ele>165.48</ele>
        <time>2018-03-16T15:48:05Z</time>
      </trkpt>
      <trkpt lat="44.99016" lon="0.63314">
        <ele>165.96</ele>
        <time>2018-03-16T15:48:34Z</time>
      </trkpt>
      <trkpt lat="44.99023" lon="0.63346">
        <ele>165.96</ele>
        <time>2018-03-16T15:48:53Z</time>
      </trkpt>
      <trkpt lat="44.99013" lon="0.63369">
        <ele>163.56</ele>
        <time>2018-03-16T15:49:09Z</time>
      </trkpt>
      <trkpt lat="44.99" lon="0.63384">
        <ele>162.12</ele>
        <time>2018-03-16T15:49:21Z</time>
      </trkpt>
      <trkpt lat="44.98987" lon="0.63401">
        <ele>159.72</ele>
        <time>2018-03-16T15:49:36Z</time>
      </trkpt>
      <trkpt lat="44.98977" lon="0.63416">
        <ele>158.27</ele>
        <time>2018-03-16T15:49:53Z</time>
      </trkpt>
      <trkpt lat="44.98967" lon="0.63431">
        <ele>156.83</ele>
        <time>2018-03-16T15:50:08Z</time>
      </trkpt>
      <trkpt lat="44.98949" lon="0.63453">
        <ele>153.95</ele>
        <time>2018-03-16T15:50:25Z</time>
      </trkpt>
      <trkpt lat="44.98937" lon="0.63471">
        <ele>151.06</ele>
        <time>2018-03-16T15:50:43Z</time>
      </trkpt>
      <trkpt lat="44.98926" lon="0.63492">
        <ele>148.66</ele>
        <time>2018-03-16T15:50:58Z</time>
      </trkpt>
      <trkpt lat="44.98918" lon="0.63515">
        <ele>146.74</ele>
        <time>2018-03-16T15:51:12Z</time>
      </trkpt>
      <trkpt lat="44.98908" lon="0.63544">
        <ele>144.34</ele>
        <time>2018-03-16T15:51:28Z</time>
      </trkpt>
      <trkpt lat="44.98901" lon="0.6357">
        <ele>142.41</ele>
        <time>2018-03-16T15:51:44Z</time>
      </trkpt>
      <trkpt lat="44.98897" lon="0.63582">
        <ele>142.41</ele>
        <time>2018-03-16T15:51:52Z</time>
      </trkpt>
      <trkpt lat="44.98871" lon="0.636">
        <ele>140.49</ele>
        <time>2018-03-16T15:52:11Z</time>
      </trkpt>
      <trkpt lat="44.98837" lon="0.63623">
        <ele>138.57</ele>
        <time>2018-03-16T15:52:35Z</time>
      </trkpt>
      <trkpt lat="44.98825" lon="0.63659">
        <ele>138.09</ele>
        <time>2018-03-16T15:52:54Z</time>
      </trkpt>
      <trkpt lat="44.98819" lon="0.63678">
        <ele>138.09</ele>
        <time>2018-03-16T15:53:04Z</time>
      </trkpt>
      <trkpt lat="44.98805" lon="0.63703">
        <ele>138.09</ele>
        <time>2018-03-16T15:53:19Z</time>
      </trkpt>
      <trkpt lat="44.98798" lon="0.63708">
        <ele>138.09</ele>
        <time>2018-03-16T15:53:25Z</time>
      </trkpt>
      <trkpt lat="44.98789" lon="0.63709">
        <ele>138.09</ele>
        <time>2018-03-16T15:53:30Z</time>
      </trkpt>
      <trkpt lat="44.98783" lon="0.63703">
        <ele>138.09</ele>
        <time>2018-03-16T15:53:36Z</time>
      </trkpt>
      <trkpt lat="44.98761" lon="0.63683">
        <ele>139.53</ele>
        <time>2018-03-16T15:53:53Z</time>
      </trkpt>
      <trkpt lat="44.98742" lon="0.63683">
        <ele>140.49</ele>
        <time>2018-03-16T15:54:09Z</time>
      </trkpt>
      <trkpt lat="44.98739" lon="0.63683">
        <ele>140.49</ele>
        <time>2018-03-16T15:54:11Z</time>
      </trkpt>
      <trkpt lat="44.98729" lon="0.63691">
        <ele>141.93</ele>
        <time>2018-03-16T15:54:29Z</time>
      </trkpt>
      <trkpt lat="44.98729" lon="0.63698">
        <ele>142.41</ele>
        <time>2018-03-16T15:54:39Z</time>
      </trkpt>
      <trkpt lat="44.98727" lon="0.63704">
        <ele>142.89</ele>
        <time>2018-03-16T15:54:43Z</time>
      </trkpt>
      <trkpt lat="44.98721" lon="0.63726">
        <ele>145.3</ele>
        <time>2018-03-16T15:54:59Z</time>
      </trkpt>
      <trkpt lat="44.98714" lon="0.63749">
        <ele>148.66</ele>
        <time>2018-03-16T15:55:18Z</time>
      </trkpt>
      <trkpt lat="44.98706" lon="0.63769">
        <ele>151.06</ele>
        <time>2018-03-16T15:55:37Z</time>
      </trkpt>
      <trkpt lat="44.98701" lon="0.6379">
        <ele>153.47</ele>
        <time>2018-03-16T15:55:53Z</time>
      </trkpt>
      <trkpt lat="44.98691" lon="0.63809">
        <ele>156.35</ele>
        <time>2018-03-16T15:56:12Z</time>
      </trkpt>
      <trkpt lat="44.98695" lon="0.63827">
        <ele>158.27</ele>
        <time>2018-03-16T15:56:26Z</time>
      </trkpt>
      <trkpt lat="44.98691" lon="0.63855">
        <ele>160.68</ele>
        <time>2018-03-16T15:56:44Z</time>
      </trkpt>
      <trkpt lat="44.98691" lon="0.63882">
        <ele>162.12</ele>
        <time>2018-03-16T15:57:02Z</time>
      </trkpt>
      <trkpt lat="44.98695" lon="0.63904">
        <ele>165</ele>
        <time>2018-03-16T15:57:20Z</time>
      </trkpt>
      <trkpt lat="44.98701" lon="0.63924">
        <ele>167.89</ele>
        <time>2018-03-16T15:57:39Z</time>
      </trkpt>
      <trkpt lat="44.98706" lon="0.63943">
        <ele>168.85</ele>
        <time>2018-03-16T15:57:55Z</time>
      </trkpt>
      <trkpt lat="44.98721" lon="0.63937">
        <ele>170.29</ele>
        <time>2018-03-16T15:58:13Z</time>
      </trkpt>
      <trkpt lat="44.98737" lon="0.63937">
        <ele>170.77</ele>
        <time>2018-03-16T15:58:26Z</time>
      </trkpt>
      <trkpt lat="44.98742" lon="0.63944">
        <ele>170.77</ele>
        <time>2018-03-16T15:58:31Z</time>
      </trkpt>
      <trkpt lat="44.98746" lon="0.63953">
        <ele>171.73</ele>
        <time>2018-03-16T15:58:48Z</time>
      </trkpt>
      <trkpt lat="44.98749" lon="0.63978">
        <ele>173.66</ele>
        <time>2018-03-16T15:59:06Z</time>
      </trkpt>
      <trkpt lat="44.9875" lon="0.63979">
        <ele>174.62</ele>
        <time>2018-03-16T15:59:07Z</time>
      </trkpt>
      <trkpt lat="44.98753" lon="0.64007">
        <ele>176.54</ele>
        <time>2018-03-16T15:59:25Z</time>
      </trkpt>
      <trkpt lat="44.98756" lon="0.6402">
        <ele>177.5</ele>
        <time>2018-03-16T15:59:36Z</time>
      </trkpt>
      <trkpt lat="44.98769" lon="0.64026">
        <ele>177.98</ele>
        <time>2018-03-16T15:59:50Z</time>
      </trkpt>
      <trkpt lat="44.98771" lon="0.64027">
        <ele>177.98</ele>
        <time>2018-03-16T16:00:07Z</time>
      </trkpt>
      <trkpt lat="44.98771" lon="0.64026">
        <ele>178.94</ele>
        <time>2018-03-16T16:00:24Z</time>
      </trkpt>
      <trkpt lat="44.98772" lon="0.64027">
        <ele>179.42</ele>
        <time>2018-03-16T16:00:53Z</time>
      </trkpt>
      <trkpt lat="44.9877" lon="0.64028">
        <ele>179.42</ele>
        <time>2018-03-16T16:01:12Z</time>
      </trkpt>
      <trkpt lat="44.98769" lon="0.64028">
        <ele>179.9</ele>
        <time>2018-03-16T16:01:31Z</time>
      </trkpt>
      <trkpt lat="44.9877" lon="0.64028">
        <ele>178.46</ele>
        <time>2018-03-16T16:01:33Z</time>
      </trkpt>
      <trkpt lat="44.98769" lon="0.64028">
        <ele>179.42</ele>
        <time>2018-03-16T16:01:35Z</time>
      </trkpt>
      <trkpt lat="44.98769" lon="0.6403">
        <ele>179.42</ele>
        <time>2018-03-16T16:01:58Z</time>
      </trkpt>
    </trkseg>
  </trk>
</gpx>